Observation data for Tarzan on 09/12/2017      Previous  Date  Next       Current Mesonet Observations  Soil Data  Daily Summary Page  Observations in Plain Language
KTA1 120500Z 13003KT 21/10 A3012 RMK A01 T02100098  RH  049%=      5-min Rain = 0
KTA1 120501Z 13003KT 21/10 A3012 RMK A01 T02100098  RH  049%=      5-min Rain = 0
KTA1 120502Z 13003KT 21/10 A3012 RMK A01 T02100098  RH  049%=      5-min Rain = 0
KTA1 120503Z 13003KT 21/10 A3012 RMK A01 T02090098  RH  049%=      5-min Rain = 0
KTA1 120504Z 13003KT 21/10 A3012 RMK A01 T02090099  RH  049%=      5-min Rain = 0
KTA1 120505Z 13003KT 21/10 A3011 RMK A01 T02090098  RH  049%=      5-min Rain = 0
KTA1 120506Z 14003KT 21/10 A3011 RMK A01 T02080097  RH  049%=      5-min Rain = 0
KTA1 120507Z 15003KT 21/10 A3011 RMK A01 T02080097  RH  049%=      5-min Rain = 0
KTA1 120508Z 15003KT 21/10 A3011 RMK A01 T02070097  RH  049%=      5-min Rain = 0
KTA1 120509Z 15003KT 21/10 A3011 RMK A01 T02060097  RH  050%=      5-min Rain = 0
KTA1 120510Z 15003KT 21/10 A3011 RMK A01 T02060097  RH  050%=      5-min Rain = 0
KTA1 120511Z 15003KT 21/10 A3011 RMK A01 T02050097  RH  050%=      5-min Rain = 0
KTA1 120512Z 15003KT 21/10 A3011 RMK A01 T02050096  RH  050%=      5-min Rain = 0
KTA1 120513Z 15002KT 20/09 A3011 RMK A01 T02040094  RH  049%=      5-min Rain = 0
KTA1 120514Z 15002KT 20/10 A3011 RMK A01 T02040095  RH  049%=      5-min Rain = 0
KTA1 120515Z 14002KT 20/10 A3011 RMK A01 T02040096  RH  050%=      5-min Rain = 0
KTA1 120516Z 14002KT 20/10 A3011 RMK A01 T02040097  RH  050%=      5-min Rain = 0
KTA1 120517Z 14002KT 20/10 A3011 RMK A01 T02040097  RH  050%=      5-min Rain = 0
KTA1 120518Z 14002KT 20/10 A3011 RMK A01 T02030097  RH  050%=      5-min Rain = 0
KTA1 120519Z 14002KT 20/10 A3011 RMK A01 T02030097  RH  050%=      5-min Rain = 0
KTA1 120520Z 14002KT 20/10 A3011 RMK A01 T02030097  RH  051%=      5-min Rain = 0
KTA1 120521Z 14002KT 20/10 A3011 RMK A01 T02030097  RH  051%=      5-min Rain = 0
KTA1 120522Z 14002KT 20/10 A3011 RMK A01 T02030097  RH  051%=      5-min Rain = 0
KTA1 120523Z 14002KT 20/10 A3011 RMK A01 T02030097  RH  050%=      5-min Rain = 0
KTA1 120524Z 14002KT 20/10 A3011 RMK A01 T02030097  RH  050%=      5-min Rain = 0
KTA1 120525Z 15002KT 20/10 A3011 RMK A01 T02040097  RH  050%=      5-min Rain = 0
KTA1 120526Z 15002KT 20/10 A3011 RMK A01 T02030097  RH  050%=      5-min Rain = 0
KTA1 120527Z 15002KT 20/10 A3011 RMK A01 T02030096  RH  050%=      5-min Rain = 0
KTA1 120528Z 15002KT 20/10 A3011 RMK A01 T02030097  RH  050%=      5-min Rain = 0
KTA1 120529Z 15002KT 20/10 A3011 RMK A01 T02020096  RH  050%=      5-min Rain = 0
KTA1 120530Z 15002KT 20/10 A3011 RMK A01 T02020096  RH  051%=      5-min Rain = 0
KTA1 120531Z 16003KT 20/10 A3011 RMK A01 T02010096  RH  051%=      5-min Rain = 0
KTA1 120532Z 16003KT 20/10 A3011 RMK A01 T02010096  RH  051%=      5-min Rain = 0
KTA1 120533Z 16003KT 20/10 A3011 RMK A01 T02000096  RH  051%=      5-min Rain = 0
KTA1 120534Z 16003KT 20/09 A3011 RMK A01 T02000094  RH  050%=      5-min Rain = 0
KTA1 120535Z 16003KT 20/09 A3011 RMK A01 T02000094  RH  050%=      5-min Rain = 0
KTA1 120536Z 16003KT 20/09 A3011 RMK A01 T02000093  RH  050%=      5-min Rain = 0
KTA1 120537Z 16003KT 20/09 A3011 RMK A01 T02000094  RH  051%=      5-min Rain = 0
KTA1 120538Z 16003KT 20/09 A3011 RMK A01 T02000094  RH  051%=      5-min Rain = 0
KTA1 120539Z 16003KT 20/09 A3011 RMK A01 T01990094  RH  051%=      5-min Rain = 0
KTA1 120540Z 16003KT 20/10 A3011 RMK A01 T01990095  RH  051%=      5-min Rain = 0
KTA1 120541Z 16003KT 20/10 A3011 RMK A01 T01990095  RH  051%=      5-min Rain = 0
KTA1 120542Z 16003KT 20/10 A3011 RMK A01 T01990095  RH  051%=      5-min Rain = 0
KTA1 120543Z 16003KT 20/10 A3011 RMK A01 T01990095  RH  051%=      5-min Rain = 0
KTA1 120544Z 16003KT 20/10 A3011 RMK A01 T01990095  RH  051%=      5-min Rain = 0
KTA1 120545Z 16003KT 20/09 A3011 RMK A01 T01990094  RH  051%=      5-min Rain = 0
KTA1 120546Z 16003KT 20/09 A301 RMK A01 T01990094  RH  051%=      5-min Rain = 0
KTA1 120547Z 16003KT 20/10 A301 RMK A01 T02000095  RH  051%=      5-min Rain = 0
KTA1 120548Z 16004KT 20/10 A301 RMK A01 T02010095  RH  050%=      5-min Rain = 0
KTA1 120549Z 16004KT 20/10 A301 RMK A01 T02030095  RH  050%=      5-min Rain = 0
KTA1 120550Z 16004KT 20/10 A301 RMK A01 T02030095  RH  050%=      5-min Rain = 0
KTA1 120551Z 17004KT 20/10 A301 RMK A01 T02040095  RH  050%=      5-min Rain = 0
KTA1 120552Z 16004KT 20/10 A301 RMK A01 T02040095  RH  049%=      5-min Rain = 0
KTA1 120553Z 16004KT 20/10 A301 RMK A01 T02040095  RH  049%=      5-min Rain = 0
KTA1 120554Z 16004KT 20/09 A301 RMK A01 T02040094  RH  049%=      5-min Rain = 0
KTA1 120555Z 16004KT 20/09 A301 RMK A01 T02040094  RH  049%=      5-min Rain = 0
KTA1 120556Z 16004KT 20/09 A301 RMK A01 T02040094  RH  049%=      5-min Rain = 0
KTA1 120557Z 16004KT 20/09 A301 RMK A01 T02040094  RH  049%=      5-min Rain = 0
KTA1 120558Z 16004KT 20/09 A301 RMK A01 T02040093  RH  049%=      5-min Rain = 0
KTA1 120559Z 16005KT 20/09 A301 RMK A01 T02040093  RH  049%=      5-min Rain = 0
KTA1 120600Z 16005KT 20/09 A301 RMK A01 T02040093  RH  049%=      5-min Rain = 0
KTA1 120601Z 16004KT 20/09 A301 RMK A01 T02040093  RH  049%=      5-min Rain = 0
KTA1 120602Z 17004KT 20/09 A301 RMK A01 T02040093  RH  049%=      5-min Rain = 0
KTA1 120603Z 17004KT 20/09 A301 RMK A01 T02040093  RH  049%=      5-min Rain = 0
KTA1 120604Z 17003KT 20/09 A301 RMK A01 T02030093  RH  049%=      5-min Rain = 0
KTA1 120605Z 17003KT 20/09 A301 RMK A01 T02030094  RH  049%=      5-min Rain = 0
KTA1 120606Z 17003KT 20/09 A301 RMK A01 T02020093  RH  050%=      5-min Rain = 0
KTA1 120607Z 17004KT 20/09 A301 RMK A01 T02020092  RH  049%=      5-min Rain = 0
KTA1 120608Z 17004KT 20/09 A301 RMK A01 T02010091  RH  049%=      5-min Rain = 0
KTA1 120609Z 17003KT 20/09 A301 RMK A01 T02000091  RH  049%=      5-min Rain = 0
KTA1 120610Z 17003KT 20/09 A301 RMK A01 T01990091  RH  050%=      5-min Rain = 0
KTA1 120611Z 17003KT 20/09 A301 RMK A01 T01980091  RH  050%=      5-min Rain = 0
KTA1 120612Z 17003KT 20/09 A301 RMK A01 T01970091  RH  050%=      5-min Rain = 0
KTA1 120613Z 17003KT 20/09 A301 RMK A01 T01970091  RH  051%=      5-min Rain = 0
KTA1 120614Z 18003KT 20/09 A301 RMK A01 T01960091  RH  051%=      5-min Rain = 0
KTA1 120615Z 18003KT 20/09 A301 RMK A01 T01960091  RH  051%=      5-min Rain = 0
KTA1 120616Z 18003KT 20/09 A301 RMK A01 T01950091  RH  051%=      5-min Rain = 0
KTA1 120617Z 18003KT 20/09 A3009 RMK A01 T01950091  RH  051%=      5-min Rain = 0
KTA1 120618Z 18003KT 19/09 A3009 RMK A01 T01940091  RH  051%=      5-min Rain = 0
KTA1 120619Z 18003KT 19/09 A3009 RMK A01 T01940091  RH  051%=      5-min Rain = 0
KTA1 120620Z 18003KT 19/09 A3009 RMK A01 T01930091  RH  051%=      5-min Rain = 0
KTA1 120621Z 17003KT 19/09 A3009 RMK A01 T01930091  RH  052%=      5-min Rain = 0
KTA1 120622Z 17003KT 19/09 A3009 RMK A01 T01930091  RH  052%=      5-min Rain = 0
KTA1 120623Z 17003KT 19/09 A3009 RMK A01 T01920091  RH  052%=      5-min Rain = 0
KTA1 120624Z 16003KT 19/09 A3009 RMK A01 T01920091  RH  052%=      5-min Rain = 0
KTA1 120625Z 16003KT 19/09 A3009 RMK A01 T01920091  RH  052%=      5-min Rain = 0
KTA1 120626Z 16003KT 19/09 A3009 RMK A01 T01920091  RH  052%=      5-min Rain = 0
KTA1 120627Z 16003KT 19/09 A3009 RMK A01 T01930091  RH  052%=      5-min Rain = 0
KTA1 120628Z 16003KT 19/09 A3009 RMK A01 T01930091  RH  052%=      5-min Rain = 0
KTA1 120629Z 16003KT 19/09 A3009 RMK A01 T01930091  RH  051%=      5-min Rain = 0
KTA1 120630Z 16003KT 19/09 A3009 RMK A01 T01930090  RH  051%=      5-min Rain = 0
KTA1 120631Z 16003KT 19/09 A3009 RMK A01 T01940091  RH  051%=      5-min Rain = 0
KTA1 120632Z 16003KT 19/09 A301 RMK A01 T01940092  RH  052%=      5-min Rain = 0
KTA1 120633Z 16003KT 19/09 A301 RMK A01 T01930092  RH  052%=      5-min Rain = 0
KTA1 120634Z 16002KT 19/09 A301 RMK A01 T01930092  RH  052%=      5-min Rain = 0
KTA1 120635Z 16002KT 19/09 A301 RMK A01 T01930092  RH  052%=      5-min Rain = 0
KTA1 120636Z 16002KT 19/09 A301 RMK A01 T01930092  RH  052%=      5-min Rain = 0
KTA1 120637Z 16002KT 19/09 A301 RMK A01 T01930092  RH  052%=      5-min Rain = 0
KTA1 120638Z 16002KT 19/09 A301 RMK A01 T01930092  RH  052%=      5-min Rain = 0
KTA1 120639Z 16002KT 19/09 A301 RMK A01 T01940092  RH  052%=      5-min Rain = 0
KTA1 120640Z 17002KT 19/09 A3009 RMK A01 T01940092  RH  052%=      5-min Rain = 0
KTA1 120641Z 17002KT 20/09 A3009 RMK A01 T01950091  RH  051%=      5-min Rain = 0
KTA1 120642Z 17002KT 20/09 A3009 RMK A01 T01950090  RH  051%=      5-min Rain = 0
KTA1 120643Z 17002KT 19/09 A3009 RMK A01 T01940091  RH  051%=      5-min Rain = 0
KTA1 120644Z 17002KT 19/09 A3009 RMK A01 T01940091  RH  051%=      5-min Rain = 0
KTA1 120645Z 17002KT 19/09 A3009 RMK A01 T01930092  RH  052%=      5-min Rain = 0
KTA1 120646Z 17002KT 19/09 A3009 RMK A01 T01930091  RH  052%=      5-min Rain = 0
KTA1 120647Z 17002KT 19/09 A3009 RMK A01 T01930091  RH  052%=      5-min Rain = 0
KTA1 120648Z 17002KT 19/09 A3009 RMK A01 T01920091  RH  052%=      5-min Rain = 0
KTA1 120649Z 17002KT 19/09 A3009 RMK A01 T01920092  RH  052%=      5-min Rain = 0
KTA1 120650Z 17002KT 19/09 A3009 RMK A01 T01920091  RH  052%=      5-min Rain = 0
KTA1 120651Z 16002KT 19/09 A3009 RMK A01 T01920092  RH  052%=      5-min Rain = 0
KTA1 120652Z 16002KT 19/09 A3009 RMK A01 T01920092  RH  052%=      5-min Rain = 0
KTA1 120653Z 16002KT 19/09 A3009 RMK A01 T01920092  RH  052%=      5-min Rain = 0
KTA1 120654Z 15002KT 19/09 A3009 RMK A01 T01910092  RH  052%=      5-min Rain = 0
KTA1 120655Z 14002KT 19/09 A301 RMK A01 T01910092  RH  052%=      5-min Rain = 0
KTA1 120656Z 14002KT 19/09 A301 RMK A01 T01910092  RH  052%=      5-min Rain = 0
KTA1 120657Z 14002KT 19/09 A301 RMK A01 T01910092  RH  052%=      5-min Rain = 0
KTA1 120658Z 14002KT 19/09 A301 RMK A01 T01910092  RH  053%=      5-min Rain = 0
KTA1 120659Z 14002KT 19/09 A301 RMK A01 T01910092  RH  052%=      5-min Rain = 0
KTA1 120700Z 14002KT 19/09 A301 RMK A01 T01910090  RH  052%=      5-min Rain = 0
KTA1 120701Z 14002KT 19/09 A3009 RMK A01 T01900092  RH  053%=      5-min Rain = 0
KTA1 120702Z 14001KT 19/09 A3009 RMK A01 T01900091  RH  053%=      5-min Rain = 0
KTA1 120703Z 14001KT 19/09 A3009 RMK A01 T01890091  RH  053%=      5-min Rain = 0
KTA1 120704Z 14001KT 19/09 A3009 RMK A01 T01890090  RH  053%=      5-min Rain = 0
KTA1 120705Z 14001KT 19/09 A3009 RMK A01 T01880088  RH  052%=      5-min Rain = 0
KTA1 120706Z 14002KT 19/09 A3009 RMK A01 T01870088  RH  053%=      5-min Rain = 0
KTA1 120707Z 15002KT 19/09 A3009 RMK A01 T01860088  RH  053%=      5-min Rain = 0
KTA1 120708Z 15002KT 19/09 A3009 RMK A01 T01860089  RH  053%=      5-min Rain = 0
KTA1 120709Z 16002KT 19/09 A3009 RMK A01 T01860091  RH  054%=      5-min Rain = 0
KTA1 120710Z 16002KT 19/09 A3009 RMK A01 T01850090  RH  054%=      5-min Rain = 0
KTA1 120711Z 16002KT 19/09 A3009 RMK A01 T01850089  RH  054%=      5-min Rain = 0
KTA1 120712Z 16001KT 18/09 A3009 RMK A01 T01840089  RH  054%=      5-min Rain = 0
KTA1 120713Z 16001KT 18/09 A3009 RMK A01 T01840089  RH  054%=      5-min Rain = 0
KTA1 120714Z 16001KT 18/09 A3009 RMK A01 T01830088  RH  054%=      5-min Rain = 0
KTA1 120715Z 16001KT 18/09 A3009 RMK A01 T01830088  RH  054%=      5-min Rain = 0
KTA1 120716Z 16001KT 18/09 A3009 RMK A01 T01830089  RH  054%=      5-min Rain = 0
KTA1 120717Z 16001KT 18/09 A3009 RMK A01 T01830089  RH  054%=      5-min Rain = 0
KTA1 120718Z 16001KT 18/09 A3009 RMK A01 T01830090  RH  055%=      5-min Rain = 0
KTA1 120719Z 16001KT 18/09 A3009 RMK A01 T01830091  RH  055%=      5-min Rain = 0
KTA1 120720Z 16000KT 18/09 A3009 RMK A01 T01830091  RH  055%=      5-min Rain = 0
KTA1 120721Z 16001KT 18/09 A3009 RMK A01 T01840092  RH  055%=      5-min Rain = 0
KTA1 120722Z 16001KT 18/09 A3009 RMK A01 T01840092  RH  055%=      5-min Rain = 0
KTA1 120723Z 16001KT 19/09 A3009 RMK A01 T01850092  RH  055%=      5-min Rain = 0
KTA1 120724Z 16001KT 19/09 A3009 RMK A01 T01860092  RH  054%=      5-min Rain = 0
KTA1 120725Z 16001KT 19/09 A3009 RMK A01 T01860092  RH  054%=      5-min Rain = 0
KTA1 120726Z 16001KT 19/09 A3009 RMK A01 T01860091  RH  054%=      5-min Rain = 0
KTA1 120727Z 16001KT 19/09 A3009 RMK A01 T01860092  RH  054%=      5-min Rain = 0
KTA1 120728Z 16000KT 19/09 A3009 RMK A01 T01850092  RH  055%=      5-min Rain = 0
KTA1 120729Z 16000KT 19/09 A3009 RMK A01 T01850092  RH  055%=      5-min Rain = 0
KTA1 120730Z 00000KT 19/09 A3009 RMK A01 T01850092  RH  055%=      5-min Rain = 0
KTA1 120731Z 00000KT 19/09 A3009 RMK A01 T01850092  RH  055%=      5-min Rain = 0
KTA1 120732Z 00000KT 19/09 A3009 RMK A01 T01860093  RH  055%=      5-min Rain = 0
KTA1 120733Z 00000KT 19/09 A3009 RMK A01 T01860092  RH  054%=      5-min Rain = 0
KTA1 120734Z 00000KT 18/09 A3009 RMK A01 T01840090  RH  054%=      5-min Rain = 0
KTA1 120735Z 00000KT 18/09 A3009 RMK A01 T01830090  RH  055%=      5-min Rain = 0
KTA1 120736Z 00000KT 18/09 A3009 RMK A01 T01810089  RH  055%=      5-min Rain = 0
KTA1 120737Z 09001KT 18/09 A3009 RMK A01 T01790089  RH  056%=      5-min Rain = 0
KTA1 120738Z 08002KT 18/09 A3009 RMK A01 T01780088  RH  056%=      5-min Rain = 0
KTA1 120739Z 08002KT 18/09 A3009 RMK A01 T01770087  RH  056%=      5-min Rain = 0
KTA1 120740Z 07002KT 18/09 A3009 RMK A01 T01760086  RH  056%=      5-min Rain = 0
KTA1 120741Z 06002KT 18/09 A3009 RMK A01 T01750086  RH  056%=      5-min Rain = 0
KTA1 120742Z 06002KT 17/09 A3009 RMK A01 T01740085  RH  056%=      5-min Rain = 0
KTA1 120743Z 06002KT 17/09 A3009 RMK A01 T01740086  RH  056%=      5-min Rain = 0
KTA1 120744Z 06002KT 17/09 A3009 RMK A01 T01730086  RH  057%=      5-min Rain = 0
KTA1 120745Z 07002KT 17/09 A3009 RMK A01 T01720086  RH  057%=      5-min Rain = 0
KTA1 120746Z 07002KT 17/09 A3009 RMK A01 T01720086  RH  057%=      5-min Rain = 0
KTA1 120747Z 07002KT 17/09 A3009 RMK A01 T01720086  RH  057%=      5-min Rain = 0
KTA1 120748Z 07002KT 17/09 A3009 RMK A01 T01720087  RH  058%=      5-min Rain = 0
KTA1 120749Z 07002KT 17/09 A3009 RMK A01 T01720088  RH  058%=      5-min Rain = 0
KTA1 120750Z 07002KT 17/09 A3009 RMK A01 T01720089  RH  058%=      5-min Rain = 0
KTA1 120751Z 07002KT 17/09 A3009 RMK A01 T01740090  RH  058%=      5-min Rain = 0
KTA1 120752Z 07002KT 18/09 A3009 RMK A01 T01750090  RH  057%=      5-min Rain = 0
KTA1 120753Z 07002KT 18/09 A3009 RMK A01 T01760090  RH  057%=      5-min Rain = 0
KTA1 120754Z 07002KT 18/09 A3009 RMK A01 T01760090  RH  057%=      5-min Rain = 0
KTA1 120755Z 07002KT 18/09 A3009 RMK A01 T01770090  RH  057%=      5-min Rain = 0
KTA1 120756Z 07002KT 18/09 A3009 RMK A01 T01770089  RH  057%=      5-min Rain = 0
KTA1 120757Z 07002KT 18/09 A3009 RMK A01 T01770090  RH  057%=      5-min Rain = 0
KTA1 120758Z 07002KT 18/09 A3009 RMK A01 T01760089  RH  057%=      5-min Rain = 0
KTA1 120759Z 07002KT 18/09 A3008 RMK A01 T01760090  RH  057%=      5-min Rain = 0
KTA1 120800Z 07002KT 18/09 A3009 RMK A01 T01760089  RH  057%=      5-min Rain = 0
KTA1 120801Z 07002KT 18/09 A3009 RMK A01 T01750090  RH  057%=      5-min Rain = 0
KTA1 120802Z 07002KT 18/09 A3009 RMK A01 T01750090  RH  057%=      5-min Rain = 0
KTA1 120803Z 07002KT 18/09 A3009 RMK A01 T01750090  RH  057%=      5-min Rain = 0
KTA1 120804Z 07002KT 18/09 A3009 RMK A01 T01750091  RH  058%=      5-min Rain = 0
KTA1 120805Z 07002KT 18/09 A3009 RMK A01 T01750090  RH  058%=      5-min Rain = 0
KTA1 120806Z 07002KT 18/09 A3009 RMK A01 T01750091  RH  058%=      5-min Rain = 0
KTA1 120807Z 07002KT 18/09 A3008 RMK A01 T01750091  RH  058%=      5-min Rain = 0
KTA1 120808Z 07002KT 18/09 A3008 RMK A01 T01750091  RH  058%=      5-min Rain = 0
KTA1 120809Z 07002KT 18/09 A3008 RMK A01 T01750091  RH  058%=      5-min Rain = 0
KTA1 120810Z 07002KT 17/09 A3008 RMK A01 T01740091  RH  058%=      5-min Rain = 0
KTA1 120811Z 07001KT 17/09 A3008 RMK A01 T01740091  RH  058%=      5-min Rain = 0
KTA1 120812Z 07001KT 17/09 A3008 RMK A01 T01730092  RH  059%=      5-min Rain = 0
KTA1 120813Z 07001KT 17/09 A3008 RMK A01 T01730093  RH  059%=      5-min Rain = 0
KTA1 120814Z 07001KT 17/09 A3008 RMK A01 T01740092  RH  059%=      5-min Rain = 0
KTA1 120815Z 07001KT 17/09 A3008 RMK A01 T01730092  RH  059%=      5-min Rain = 0
KTA1 120816Z 07001KT 17/09 A3008 RMK A01 T01730091  RH  059%=      5-min Rain = 0
KTA1 120817Z 07001KT 17/09 A3008 RMK A01 T01720091  RH  059%=      5-min Rain = 0
KTA1 120818Z 06001KT 17/09 A3008 RMK A01 T01720091  RH  059%=      5-min Rain = 0
KTA1 120819Z 06002KT 17/09 A3008 RMK A01 T01720091  RH  059%=      5-min Rain = 0
KTA1 120820Z 06002KT 17/09 A3008 RMK A01 T01720091  RH  059%=      5-min Rain = 0
KTA1 120821Z 06002KT 17/09 A3008 RMK A01 T01730091  RH  058%=      5-min Rain = 0
KTA1 120822Z 06002KT 17/09 A3008 RMK A01 T01730091  RH  058%=      5-min Rain = 0
KTA1 120823Z 06002KT 17/09 A3008 RMK A01 T01740090  RH  058%=      5-min Rain = 0
KTA1 120824Z 06002KT 17/09 A3008 RMK A01 T01740090  RH  058%=      5-min Rain = 0
KTA1 120825Z 06002KT 17/09 A3008 RMK A01 T01730089  RH  058%=      5-min Rain = 0
KTA1 120826Z 06002KT 17/09 A3008 RMK A01 T01730089  RH  058%=      5-min Rain = 0
KTA1 120827Z 06002KT 17/09 A3008 RMK A01 T01720089  RH  058%=      5-min Rain = 0
KTA1 120828Z 06002KT 17/09 A3008 RMK A01 T01720089  RH  058%=      5-min Rain = 0
KTA1 120829Z 06002KT 17/09 A3008 RMK A01 T01710088  RH  058%=      5-min Rain = 0
KTA1 120830Z 06002KT 17/09 A3008 RMK A01 T01710089  RH  058%=      5-min Rain = 0
KTA1 120831Z 06002KT 17/09 A3008 RMK A01 T01710089  RH  058%=      5-min Rain = 0
KTA1 120832Z 06002KT 17/09 A3008 RMK A01 T01720089  RH  058%=      5-min Rain = 0
KTA1 120833Z 06001KT 17/09 A3008 RMK A01 T01720089  RH  058%=      5-min Rain = 0
KTA1 120834Z 06001KT 17/09 A3008 RMK A01 T01730090  RH  058%=      5-min Rain = 0
KTA1 120835Z 06001KT 17/09 A3008 RMK A01 T01740091  RH  058%=      5-min Rain = 0
KTA1 120836Z 06001KT 17/09 A3008 RMK A01 T01740091  RH  058%=      5-min Rain = 0
KTA1 120837Z 06001KT 18/09 A3008 RMK A01 T01750090  RH  058%=      5-min Rain = 0
KTA1 120838Z 06001KT 18/09 A3008 RMK A01 T01750090  RH  057%=      5-min Rain = 0
KTA1 120839Z 06001KT 17/09 A3008 RMK A01 T01740090  RH  057%=      5-min Rain = 0
KTA1 120840Z 06000KT 17/09 A3008 RMK A01 T01730089  RH  058%=      5-min Rain = 0
KTA1 120841Z 00000KT 17/09 A3008 RMK A01 T01710088  RH  058%=      5-min Rain = 0
KTA1 120842Z 00000KT 17/09 A3008 RMK A01 T01710089  RH  059%=      5-min Rain = 0
KTA1 120843Z 00000KT 17/09 A3008 RMK A01 T01700089  RH  059%=      5-min Rain = 0
KTA1 120844Z 00000KT 17/09 A3008 RMK A01 T01690088  RH  059%=      5-min Rain = 0
KTA1 120845Z 00000KT 17/09 A3008 RMK A01 T01690088  RH  059%=      5-min Rain = 0
KTA1 120846Z 00000KT 17/09 A3008 RMK A01 T01680088  RH  059%=      5-min Rain = 0
KTA1 120847Z 00000KT 17/09 A3008 RMK A01 T01680089  RH  060%=      5-min Rain = 0
KTA1 120848Z 00000KT 17/09 A3008 RMK A01 T01670090  RH  060%=      5-min Rain = 0
KTA1 120849Z 00000KT 17/09 A3008 RMK A01 T01670090  RH  060%=      5-min Rain = 0
KTA1 120850Z 00000KT 17/09 A3007 RMK A01 T01670091  RH  061%=      5-min Rain = 0
KTA1 120851Z 00000KT 17/09 A3007 RMK A01 T01670092  RH  061%=      5-min Rain = 0
KTA1 120852Z 00000KT 17/09 A3007 RMK A01 T01670092  RH  061%=      5-min Rain = 0
KTA1 120853Z 00000KT 17/09 A3007 RMK A01 T01670092  RH  061%=      5-min Rain = 0
KTA1 120854Z 06000KT 17/09 A3007 RMK A01 T01670092  RH  061%=      5-min Rain = 0
KTA1 120855Z 06001KT 17/09 A3007 RMK A01 T01680092  RH  061%=      5-min Rain = 0
KTA1 120856Z 06001KT 17/09 A3007 RMK A01 T01680092  RH  061%=      5-min Rain = 0
KTA1 120857Z 06001KT 17/09 A3007 RMK A01 T01690093  RH  061%=      5-min Rain = 0
KTA1 120858Z 06001KT 17/09 A3007 RMK A01 T01690093  RH  061%=      5-min Rain = 0
KTA1 120859Z 06001KT 17/09 A3007 RMK A01 T01690092  RH  060%=      5-min Rain = 0
KTA1 120900Z 06001KT 17/09 A3007 RMK A01 T01700093  RH  060%=      5-min Rain = 0
KTA1 120901Z 06001KT 17/09 A3007 RMK A01 T01700093  RH  060%=      5-min Rain = 0
KTA1 120902Z 06001KT 17/09 A3007 RMK A01 T01700092  RH  060%=      5-min Rain = 0
KTA1 120903Z 06001KT 17/09 A3007 RMK A01 T01700092  RH  060%=      5-min Rain = 0
KTA1 120904Z 06001KT 17/09 A3007 RMK A01 T01700092  RH  060%=      5-min Rain = 0
KTA1 120905Z 04001KT 17/09 A3007 RMK A01 T01700091  RH  060%=      5-min Rain = 0
KTA1 120906Z 04001KT 17/09 A3007 RMK A01 T01700092  RH  060%=      5-min Rain = 0
KTA1 120907Z 04001KT 17/09 A3007 RMK A01 T01700092  RH  060%=      5-min Rain = 0
KTA1 120908Z 03002KT 17/09 A3007 RMK A01 T01700092  RH  060%=      5-min Rain = 0
KTA1 120909Z 03002KT 17/09 A3007 RMK A01 T01700092  RH  060%=      5-min Rain = 0
KTA1 120910Z 03002KT 17/09 A3007 RMK A01 T01710092  RH  060%=      5-min Rain = 0
KTA1 120911Z 02002KT 17/09 A3007 RMK A01 T01710092  RH  060%=      5-min Rain = 0
KTA1 120912Z 02002KT 17/09 A3007 RMK A01 T01710092  RH  060%=      5-min Rain = 0
KTA1 120913Z 02002KT 17/09 A3007 RMK A01 T01710091  RH  060%=      5-min Rain = 0
KTA1 120914Z 02001KT 17/09 A3007 RMK A01 T01710092  RH  060%=      5-min Rain = 0
KTA1 120915Z 02001KT 17/09 A3007 RMK A01 T01700092  RH  060%=      5-min Rain = 0
KTA1 120916Z 02001KT 17/09 A3007 RMK A01 T01700092  RH  060%=      5-min Rain = 0
KTA1 120917Z 02001KT 17/09 A3007 RMK A01 T01700092  RH  060%=      5-min Rain = 0
KTA1 120918Z 02001KT 17/09 A3007 RMK A01 T01700092  RH  060%=      5-min Rain = 0
KTA1 120919Z 02001KT 17/09 A3007 RMK A01 T01690091  RH  060%=      5-min Rain = 0
KTA1 120920Z 36001KT 17/09 A3007 RMK A01 T01680091  RH  060%=      5-min Rain = 0
KTA1 120921Z 34001KT 17/09 A3007 RMK A01 T01680090  RH  060%=      5-min Rain = 0
KTA1 120922Z 34001KT 17/09 A3007 RMK A01 T01670090  RH  060%=      5-min Rain = 0
KTA1 120923Z 34002KT 17/09 A3007 RMK A01 T01660089  RH  060%=      5-min Rain = 0
KTA1 120924Z 33002KT 17/09 A3007 RMK A01 T01660090  RH  061%=      5-min Rain = 0
KTA1 120925Z 33002KT 17/09 A3007 RMK A01 T01650090  RH  061%=      5-min Rain = 0
KTA1 120926Z 33002KT 17/09 A3007 RMK A01 T01650091  RH  061%=      5-min Rain = 0
KTA1 120927Z 33002KT 17/09 A3007 RMK A01 T01650091  RH  062%=      5-min Rain = 0
KTA1 120928Z 33001KT 17/09 A3007 RMK A01 T01650093  RH  062%=      5-min Rain = 0
KTA1 120929Z 33002KT 17/09 A3007 RMK A01 T01650093  RH  063%=      5-min Rain = 0
KTA1 120930Z 32002KT 16/09 A3007 RMK A01 T01640093  RH  063%=      5-min Rain = 0
KTA1 120931Z 32002KT 16/09 A3007 RMK A01 T01640093  RH  063%=      5-min Rain = 0
KTA1 120932Z 32002KT 16/09 A3007 RMK A01 T01640094  RH  063%=      5-min Rain = 0
KTA1 120933Z 32002KT 16/09 A3007 RMK A01 T01630094  RH  064%=      5-min Rain = 0
KTA1 120934Z 32002KT 16/09 A3007 RMK A01 T01630094  RH  064%=      5-min Rain = 0
KTA1 120935Z 32001KT 16/09 A3007 RMK A01 T01630094  RH  064%=      5-min Rain = 0
KTA1 120936Z 32001KT 16/09 A3007 RMK A01 T01630094  RH  064%=      5-min Rain = 0
KTA1 120937Z 32001KT 16/09 A3007 RMK A01 T01620094  RH  064%=      5-min Rain = 0
KTA1 120938Z 32001KT 16/09 A3006 RMK A01 T01620094  RH  064%=      5-min Rain = 0
KTA1 120939Z 32001KT 16/09 A3007 RMK A01 T01620094  RH  064%=      5-min Rain = 0
KTA1 120940Z 32001KT 16/09 A3006 RMK A01 T01620094  RH  064%=      5-min Rain = 0
KTA1 120941Z 32001KT 16/10 A3006 RMK A01 T01620095  RH  064%=      5-min Rain = 0
KTA1 120942Z 32001KT 16/09 A3006 RMK A01 T01620094  RH  064%=      5-min Rain = 0
KTA1 120943Z 32001KT 16/10 A3006 RMK A01 T01610095  RH  065%=      5-min Rain = 0
KTA1 120944Z 32001KT 16/09 A3006 RMK A01 T01610094  RH  065%=      5-min Rain = 0
KTA1 120945Z 32001KT 16/09 A3006 RMK A01 T01600094  RH  065%=      5-min Rain = 0
KTA1 120946Z 32001KT 16/09 A3006 RMK A01 T01600093  RH  064%=      5-min Rain = 0
KTA1 120947Z 32001KT 16/09 A3006 RMK A01 T01600093  RH  064%=      5-min Rain = 0
KTA1 120948Z 32001KT 16/09 A3006 RMK A01 T01600093  RH  064%=      5-min Rain = 0
KTA1 120949Z 32001KT 16/09 A3006 RMK A01 T01600093  RH  064%=      5-min Rain = 0
KTA1 120950Z 32001KT 16/09 A3006 RMK A01 T01600092  RH  064%=      5-min Rain = 0
KTA1 120951Z 32001KT 16/09 A3006 RMK A01 T01600092  RH  064%=      5-min Rain = 0
KTA1 120952Z 32001KT 16/09 A3006 RMK A01 T01600091  RH  064%=      5-min Rain = 0
KTA1 120953Z 32001KT 16/09 A3006 RMK A01 T01600091  RH  064%=      5-min Rain = 0
KTA1 120954Z 32001KT 16/09 A3006 RMK A01 T01600091  RH  064%=      5-min Rain = 0
KTA1 120955Z 32001KT 16/09 A3006 RMK A01 T01600091  RH  064%=      5-min Rain = 0
KTA1 120956Z 32001KT 16/09 A3006 RMK A01 T01600091  RH  064%=      5-min Rain = 0
KTA1 120957Z 32001KT 16/09 A3006 RMK A01 T01600091  RH  064%=      5-min Rain = 0
KTA1 120958Z 32001KT 16/09 A3006 RMK A01 T01600090  RH  063%=      5-min Rain = 0
KTA1 120959Z 32001KT 16/09 A3006 RMK A01 T01600090  RH  063%=      5-min Rain = 0
KTA1 121000Z 32001KT 16/09 A3006 RMK A01 T01600090  RH  063%=      5-min Rain = 0
KTA1 121001Z 32001KT 16/09 A3006 RMK A01 T01600090  RH  063%=      5-min Rain = 0
KTA1 121002Z 32001KT 16/09 A3006 RMK A01 T01610090  RH  063%=      5-min Rain = 0
KTA1 121003Z 32001KT 16/09 A3006 RMK A01 T01610089  RH  062%=      5-min Rain = 0
KTA1 121004Z 32001KT 16/09 A3006 RMK A01 T01600088  RH  062%=      5-min Rain = 0
KTA1 121005Z 33002KT 16/09 A3006 RMK A01 T01600088  RH  062%=      5-min Rain = 0
KTA1 121006Z 33002KT 16/09 A3006 RMK A01 T01600088  RH  062%=      5-min Rain = 0
KTA1 121007Z 33002KT 16/09 A3006 RMK A01 T01600088  RH  063%=      5-min Rain = 0
KTA1 121008Z 33002KT 16/09 A3006 RMK A01 T01600088  RH  062%=      5-min Rain = 0
KTA1 121009Z 33002KT 16/09 A3006 RMK A01 T01600089  RH  062%=      5-min Rain = 0
KTA1 121010Z 34002KT 16/09 A3006 RMK A01 T01610089  RH  062%=      5-min Rain = 0
KTA1 121011Z 34002KT 16/09 A3006 RMK A01 T01610089  RH  062%=      5-min Rain = 0
KTA1 121012Z 34002KT 16/09 A3006 RMK A01 T01610089  RH  062%=      5-min Rain = 0
KTA1 121013Z 35002KT 16/09 A3006 RMK A01 T01620088  RH  062%=      5-min Rain = 0
KTA1 121014Z 35002KT 16/09 A3006 RMK A01 T01610088  RH  062%=      5-min Rain = 0
KTA1 121015Z 35002KT 16/09 A3006 RMK A01 T01600087  RH  062%=      5-min Rain = 0
KTA1 121016Z 35002KT 16/09 A3006 RMK A01 T01600088  RH  062%=      5-min Rain = 0
KTA1 121017Z 35002KT 16/09 A3006 RMK A01 T01600087  RH  062%=      5-min Rain = 0
KTA1 121018Z 35002KT 16/09 A3006 RMK A01 T01600087  RH  062%=      5-min Rain = 0
KTA1 121019Z 35002KT 16/09 A3006 RMK A01 T01600087  RH  062%=      5-min Rain = 0
KTA1 121020Z 35002KT 16/09 A3006 RMK A01 T01590087  RH  062%=      5-min Rain = 0
KTA1 121021Z 35002KT 16/09 A3006 RMK A01 T01590087  RH  063%=      5-min Rain = 0
KTA1 121022Z 35002KT 16/09 A3006 RMK A01 T01590087  RH  063%=      5-min Rain = 0
KTA1 121023Z 35002KT 16/09 A3006 RMK A01 T01580087  RH  063%=      5-min Rain = 0
KTA1 121024Z 35002KT 16/09 A3006 RMK A01 T01580088  RH  063%=      5-min Rain = 0
KTA1 121025Z 35002KT 16/09 A3007 RMK A01 T01570087  RH  063%=      5-min Rain = 0
KTA1 121026Z 35002KT 16/09 A3007 RMK A01 T01570087  RH  063%=      5-min Rain = 0
KTA1 121027Z 35002KT 16/09 A3007 RMK A01 T01560087  RH  063%=      5-min Rain = 0
KTA1 121028Z 35002KT 16/09 A3007 RMK A01 T01560088  RH  064%=      5-min Rain = 0
KTA1 121029Z 35002KT 16/09 A3007 RMK A01 T01560087  RH  064%=      5-min Rain = 0
KTA1 121030Z 35002KT 16/09 A3007 RMK A01 T01560087  RH  064%=      5-min Rain = 0
KTA1 121031Z 35002KT 16/09 A3007 RMK A01 T01560087  RH  064%=      5-min Rain = 0
KTA1 121032Z 35002KT 16/09 A3007 RMK A01 T01560088  RH  064%=      5-min Rain = 0
KTA1 121033Z 35003KT 16/09 A3006 RMK A01 T01560088  RH  064%=      5-min Rain = 0
KTA1 121034Z 35003KT 16/09 A3006 RMK A01 T01560088  RH  064%=      5-min Rain = 0
KTA1 121035Z 35003KT 16/09 A3006 RMK A01 T01570088  RH  064%=      5-min Rain = 0
KTA1 121036Z 35003KT 16/09 A3006 RMK A01 T01570088  RH  063%=      5-min Rain = 0
KTA1 121037Z 36003KT 16/09 A3006 RMK A01 T01580088  RH  063%=      5-min Rain = 0
KTA1 121038Z 00003KT 16/09 A3006 RMK A01 T01590088  RH  063%=      5-min Rain = 0
KTA1 121039Z 00003KT 16/09 A3006 RMK A01 T01590087  RH  062%=      5-min Rain = 0
KTA1 121040Z 00003KT 16/09 A3007 RMK A01 T01590086  RH  062%=      5-min Rain = 0
KTA1 121041Z 01003KT 16/09 A3007 RMK A01 T01580086  RH  062%=      5-min Rain = 0
KTA1 121042Z 01003KT 16/09 A3007 RMK A01 T01580086  RH  062%=      5-min Rain = 0
KTA1 121043Z 01003KT 16/09 A3007 RMK A01 T01570086  RH  063%=      5-min Rain = 0
KTA1 121044Z 01003KT 16/09 A3007 RMK A01 T01560086  RH  063%=      5-min Rain = 0
KTA1 121045Z 02004KT 16/09 A3007 RMK A01 T01560086  RH  063%=      5-min Rain = 0
KTA1 121046Z 02004KT 16/09 A3007 RMK A01 T01550085  RH  063%=      5-min Rain = 0
KTA1 121047Z 02004KT 15/08 A3007 RMK A01 T01540084  RH  063%=      5-min Rain = 0
KTA1 121048Z 02004KT 15/08 A3007 RMK A01 T01540084  RH  063%=      5-min Rain = 0
KTA1 121049Z 02004KT 15/08 A3007 RMK A01 T01530083  RH  063%=      5-min Rain = 0
KTA1 121050Z 02004KT 15/08 A3007 RMK A01 T01520083  RH  063%=      5-min Rain = 0
KTA1 121051Z 03004KT 15/08 A3007 RMK A01 T01510083  RH  064%=      5-min Rain = 0
KTA1 121052Z 03004KT 15/08 A3007 RMK A01 T01510084  RH  064%=      5-min Rain = 0
KTA1 121053Z 03004KT 15/08 A3007 RMK A01 T01510084  RH  064%=      5-min Rain = 0
KTA1 121054Z 03004KT 15/08 A3007 RMK A01 T01510084  RH  064%=      5-min Rain = 0
KTA1 121055Z 03004KT 15/08 A3007 RMK A01 T01510084  RH  064%=      5-min Rain = 0
KTA1 121056Z 03004KT 15/08 A3007 RMK A01 T01510084  RH  064%=      5-min Rain = 0
KTA1 121057Z 03004KT 15/08 A3007 RMK A01 T01510084  RH  064%=      5-min Rain = 0
KTA1 121058Z 03004KT 15/08 A3007 RMK A01 T01510084  RH  064%=      5-min Rain = 0
KTA1 121059Z 03004KT 15/08 A3007 RMK A01 T01510084  RH  064%=      5-min Rain = 0
KTA1 121100Z 03004KT 15/08 A3007 RMK A01 T01510084  RH  064%=      5-min Rain = 0
KTA1 121101Z 03004KT 15/08 A3007 RMK A01 T01510084  RH  064%=      5-min Rain = 0
KTA1 121102Z 03004KT 15/08 A3007 RMK A01 T01510084  RH  064%=      5-min Rain = 0
KTA1 121103Z 03004KT 15/09 A3007 RMK A01 T01510085  RH  064%=      5-min Rain = 0
KTA1 121104Z 03004KT 15/09 A3007 RMK A01 T01510085  RH  064%=      5-min Rain = 0
KTA1 121105Z 03004KT 15/09 A3007 RMK A01 T01520086  RH  065%=      5-min Rain = 0
KTA1 121106Z 03004KT 15/09 A3007 RMK A01 T01530086  RH  064%=      5-min Rain = 0
KTA1 121107Z 03003KT 15/09 A3007 RMK A01 T01530086  RH  064%=      5-min Rain = 0
KTA1 121108Z 03003KT 15/09 A3007 RMK A01 T01540087  RH  064%=      5-min Rain = 0
KTA1 121109Z 03003KT 15/09 A3007 RMK A01 T01540087  RH  064%=      5-min Rain = 0
KTA1 121110Z 03003KT 15/09 A3007 RMK A01 T01540087  RH  064%=      5-min Rain = 0
KTA1 121111Z 03003KT 15/09 A3007 RMK A01 T01540088  RH  065%=      5-min Rain = 0
KTA1 121112Z 03003KT 16/09 A3007 RMK A01 T01550089  RH  065%=      5-min Rain = 0
KTA1 121113Z 03003KT 16/09 A3007 RMK A01 T01550089  RH  064%=      5-min Rain = 0
KTA1 121114Z 03003KT 16/09 A3007 RMK A01 T01560089  RH  064%=      5-min Rain = 0
KTA1 121115Z 03003KT 16/09 A3007 RMK A01 T01570090  RH  064%=      5-min Rain = 0
KTA1 121116Z 03003KT 16/09 A3007 RMK A01 T01570089  RH  064%=      5-min Rain = 0
KTA1 121117Z 03003KT 16/09 A3007 RMK A01 T01580090  RH  064%=      5-min Rain = 0
KTA1 121118Z 03003KT 16/09 A3007 RMK A01 T01580090  RH  064%=      5-min Rain = 0
KTA1 121119Z 03003KT 16/09 A3007 RMK A01 T01590090  RH  064%=      5-min Rain = 0
KTA1 121120Z 03003KT 16/09 A3007 RMK A01 T01590090  RH  064%=      5-min Rain = 0
KTA1 121121Z 03003KT 16/09 A3007 RMK A01 T01590090  RH  064%=      5-min Rain = 0
KTA1 121122Z 03003KT 16/09 A3007 RMK A01 T01590090  RH  063%=      5-min Rain = 0
KTA1 121123Z 03003KT 16/09 A3007 RMK A01 T01590090  RH  063%=      5-min Rain = 0
KTA1 121124Z 03003KT 16/09 A3007 RMK A01 T01590090  RH  063%=      5-min Rain = 0
KTA1 121125Z 03003KT 16/09 A3007 RMK A01 T01590089  RH  063%=      5-min Rain = 0
KTA1 121126Z 03002KT 16/09 A3007 RMK A01 T01590089  RH  063%=      5-min Rain = 0
KTA1 121127Z 03002KT 16/09 A3007 RMK A01 T01590090  RH  064%=      5-min Rain = 0
KTA1 121128Z 03002KT 16/09 A3007 RMK A01 T01580090  RH  064%=      5-min Rain = 0
KTA1 121129Z 03002KT 16/09 A3007 RMK A01 T01570089  RH  064%=      5-min Rain = 0
KTA1 121130Z 03002KT 16/09 A3007 RMK A01 T01570089  RH  064%=      5-min Rain = 0
KTA1 121131Z 03002KT 16/09 A3007 RMK A01 T01560089  RH  064%=      5-min Rain = 0
KTA1 121132Z 02002KT 16/09 A3007 RMK A01 T01550088  RH  064%=      5-min Rain = 0
KTA1 121133Z 02002KT 16/09 A3007 RMK A01 T01550087  RH  064%=      5-min Rain = 0
KTA1 121134Z 02002KT 15/09 A3007 RMK A01 T01540087  RH  064%=      5-min Rain = 0
KTA1 121135Z 02002KT 15/09 A3007 RMK A01 T01540087  RH  064%=      5-min Rain = 0
KTA1 121136Z 02002KT 15/09 A3007 RMK A01 T01530087  RH  065%=      5-min Rain = 0
KTA1 121137Z 02002KT 15/09 A3007 RMK A01 T01530088  RH  065%=      5-min Rain = 0
KTA1 121138Z 02002KT 15/09 A3007 RMK A01 T01530088  RH  065%=      5-min Rain = 0
KTA1 121139Z 02002KT 15/09 A3007 RMK A01 T01530088  RH  065%=      5-min Rain = 0
KTA1 121140Z 02002KT 15/09 A3007 RMK A01 T01530089  RH  066%=      5-min Rain = 0
KTA1 121141Z 02002KT 15/09 A3007 RMK A01 T01530089  RH  066%=      5-min Rain = 0
KTA1 121142Z 02002KT 15/09 A3007 RMK A01 T01520088  RH  066%=      5-min Rain = 0
KTA1 121143Z 02002KT 15/09 A3007 RMK A01 T01520089  RH  066%=      5-min Rain = 0
KTA1 121144Z 02002KT 15/09 A3007 RMK A01 T01510089  RH  066%=      5-min Rain = 0
KTA1 121145Z 01002KT 15/09 A3007 RMK A01 T01510090  RH  067%=      5-min Rain = 0
KTA1 121146Z 01002KT 15/09 A3007 RMK A01 T01500091  RH  068%=      5-min Rain = 0
KTA1 121147Z 01002KT 15/09 A3007 RMK A01 T01500091  RH  068%=      5-min Rain = 0
KTA1 121148Z 01002KT 15/09 A3007 RMK A01 T01500092  RH  069%=      5-min Rain = 0
KTA1 121149Z 01002KT 15/09 A3007 RMK A01 T01490092  RH  069%=      5-min Rain = 0
KTA1 121150Z 01002KT 15/09 A3007 RMK A01 T01490092  RH  069%=      5-min Rain = 0
KTA1 121151Z 01002KT 15/09 A3007 RMK A01 T01480091  RH  069%=      5-min Rain = 0
KTA1 121152Z 01002KT 15/09 A3007 RMK A01 T01480091  RH  069%=      5-min Rain = 0
KTA1 121153Z 01002KT 15/09 A3007 RMK A01 T01480091  RH  069%=      5-min Rain = 0
KTA1 121154Z 01002KT 15/09 A3007 RMK A01 T01480091  RH  069%=      5-min Rain = 0
KTA1 121155Z 02002KT 15/09 A3007 RMK A01 T01480091  RH  069%=      5-min Rain = 0
KTA1 121156Z 02002KT 15/09 A3007 RMK A01 T01480091  RH  069%=      5-min Rain = 0
KTA1 121157Z 03003KT 15/09 A3007 RMK A01 T01480091  RH  069%=      5-min Rain = 0
KTA1 121158Z 03003KT 15/09 A3007 RMK A01 T01480092  RH  069%=      5-min Rain = 0
KTA1 121159Z 03002KT 15/09 A3007 RMK A01 T01480092  RH  069%=      5-min Rain = 0
KTA1 121200Z 03002KT 15/09 A3007 RMK A01 T01480091  RH  069%=      5-min Rain = 0
KTA1 121201Z 03002KT 15/09 A3007 RMK A01 T01480091  RH  069%=      5-min Rain = 0
KTA1 121202Z 03003KT 15/09 A3007 RMK A01 T01480091  RH  069%=      5-min Rain = 0
KTA1 121203Z 04003KT 15/09 A3007 RMK A01 T01480091  RH  069%=      5-min Rain = 0
KTA1 121204Z 04003KT 15/09 A3007 RMK A01 T01480091  RH  069%=      5-min Rain = 0
KTA1 121205Z 04002KT 15/09 A3008 RMK A01 T01480090  RH  068%=      5-min Rain = 0
KTA1 121206Z 04002KT 15/09 A3008 RMK A01 T01480090  RH  068%=      5-min Rain = 0
KTA1 121207Z 04002KT 15/09 A3008 RMK A01 T01490091  RH  068%=      5-min Rain = 0
KTA1 121208Z 04002KT 15/09 A3008 RMK A01 T01490090  RH  068%=      5-min Rain = 0
KTA1 121209Z 04002KT 15/09 A3008 RMK A01 T01490090  RH  068%=      5-min Rain = 0
KTA1 121210Z 04002KT 15/09 A3008 RMK A01 T01500090  RH  068%=      5-min Rain = 0
KTA1 121211Z 04002KT 15/09 A3008 RMK A01 T01500089  RH  067%=      5-min Rain = 0
KTA1 121212Z 04002KT 15/09 A3008 RMK A01 T01500088  RH  067%=      5-min Rain = 0
KTA1 121213Z 04002KT 15/09 A3008 RMK A01 T01490088  RH  067%=      5-min Rain = 0
KTA1 121214Z 04002KT 15/09 A3008 RMK A01 T01490088  RH  067%=      5-min Rain = 0
KTA1 121215Z 04002KT 15/09 A3008 RMK A01 T01480088  RH  067%=      5-min Rain = 0
KTA1 121216Z 03002KT 15/09 A3008 RMK A01 T01480087  RH  067%=      5-min Rain = 0
KTA1 121217Z 03002KT 15/09 A3008 RMK A01 T01470087  RH  067%=      5-min Rain = 0
KTA1 121218Z 03002KT 15/09 A3008 RMK A01 T01470087  RH  067%=      5-min Rain = 0
KTA1 121219Z 02002KT 15/09 A3008 RMK A01 T01460087  RH  067%=      5-min Rain = 0
KTA1 121220Z 02002KT 15/09 A3008 RMK A01 T01460087  RH  068%=      5-min Rain = 0
KTA1 121221Z 02002KT 15/09 A3008 RMK A01 T01460087  RH  068%=      5-min Rain = 0
KTA1 121222Z 02002KT 15/09 A3008 RMK A01 T01450087  RH  068%=      5-min Rain = 0
KTA1 121223Z 02002KT 15/09 A3008 RMK A01 T01450086  RH  068%=      5-min Rain = 0
KTA1 121224Z 02002KT 15/09 A3008 RMK A01 T01450087  RH  068%=      5-min Rain = 0
KTA1 121225Z 02003KT 15/09 A3008 RMK A01 T01450087  RH  068%=      5-min Rain = 0
KTA1 121226Z 02003KT 15/09 A3008 RMK A01 T01450087  RH  068%=      5-min Rain = 0
KTA1 121227Z 02003KT 15/09 A3008 RMK A01 T01450088  RH  069%=      5-min Rain = 0
KTA1 121228Z 02003KT 15/09 A3008 RMK A01 T01450089  RH  069%=      5-min Rain = 0
KTA1 121229Z 03003KT 15/09 A3008 RMK A01 T01460089  RH  069%=      5-min Rain = 0
KTA1 121230Z 03003KT 15/09 A3008 RMK A01 T01460089  RH  068%=      5-min Rain = 0
KTA1 121231Z 03003KT 15/09 A3008 RMK A01 T01470089  RH  068%=      5-min Rain = 0
KTA1 121232Z 03003KT 15/09 A3008 RMK A01 T01470088  RH  068%=      5-min Rain = 0
KTA1 121233Z 03003KT 15/09 A3008 RMK A01 T01470088  RH  068%=      5-min Rain = 0
KTA1 121234Z 02003KT 15/09 A3008 RMK A01 T01470089  RH  068%=      5-min Rain = 0
KTA1 121235Z 02003KT 15/09 A3008 RMK A01 T01470088  RH  068%=      5-min Rain = 0
KTA1 121236Z 02003KT 15/09 A3008 RMK A01 T01480089  RH  068%=      5-min Rain = 0
KTA1 121237Z 02003KT 15/09 A3008 RMK A01 T01480089  RH  067%=      5-min Rain = 0
KTA1 121238Z 02003KT 15/09 A3008 RMK A01 T01490089  RH  067%=      5-min Rain = 0
KTA1 121239Z 02003KT 15/09 A3008 RMK A01 T01500089  RH  067%=      5-min Rain = 0
KTA1 121240Z 02004KT 15/09 A3008 RMK A01 T01510089  RH  067%=      5-min Rain = 0
KTA1 121241Z 02004KT 15/09 A3008 RMK A01 T01510088  RH  066%=      5-min Rain = 0
KTA1 121242Z 03004KT 15/09 A3008 RMK A01 T01510087  RH  065%=      5-min Rain = 0
KTA1 121243Z 03004KT 15/09 A3008 RMK A01 T01510086  RH  065%=      5-min Rain = 0
KTA1 121244Z 03004KT 15/09 A3008 RMK A01 T01490085  RH  065%=      5-min Rain = 0
KTA1 121245Z 03004KT 15/09 A3008 RMK A01 T01490085  RH  066%=      5-min Rain = 0
KTA1 121246Z 03004KT 15/08 A3008 RMK A01 T01480084  RH  066%=      5-min Rain = 0
KTA1 121247Z 03004KT 15/08 A3008 RMK A01 T01470084  RH  066%=      5-min Rain = 0
KTA1 121248Z 03004KT 15/08 A3008 RMK A01 T01470084  RH  066%=      5-min Rain = 0
KTA1 121249Z 03004KT 15/09 A3008 RMK A01 T01470085  RH  066%=      5-min Rain = 0
KTA1 121250Z 03004KT 15/09 A3008 RMK A01 T01470085  RH  066%=      5-min Rain = 0
KTA1 121251Z 03004KT 15/09 A3008 RMK A01 T01470085  RH  066%=      5-min Rain = 0
KTA1 121252Z 03004KT 15/09 A3008 RMK A01 T01480085  RH  066%=      5-min Rain = 0
KTA1 121253Z 03004KT 15/09 A3008 RMK A01 T01490086  RH  066%=      5-min Rain = 0
KTA1 121254Z 03004KT 15/09 A3008 RMK A01 T01490086  RH  066%=      5-min Rain = 0
KTA1 121255Z 03004KT 15/09 A3008 RMK A01 T01500086  RH  066%=      5-min Rain = 0
KTA1 121256Z 03004KT 15/09 A3008 RMK A01 T01510086  RH  065%=      5-min Rain = 0
KTA1 121257Z 03004KT 15/09 A3008 RMK A01 T01510086  RH  065%=      5-min Rain = 0
KTA1 121258Z 03004KT 15/09 A3008 RMK A01 T01520086  RH  065%=      5-min Rain = 0
KTA1 121259Z 03004KT 15/09 A3008 RMK A01 T01520086  RH  065%=      5-min Rain = 0
KTA1 121300Z 03004KT 15/09 A3008 RMK A01 T01520086  RH  064%=      5-min Rain = 0
KTA1 121301Z 03003KT 15/09 A3008 RMK A01 T01530086  RH  064%=      5-min Rain = 0
KTA1 121302Z 03003KT 15/09 A3008 RMK A01 T01530086  RH  064%=      5-min Rain = 0
KTA1 121303Z 02003KT 15/09 A3008 RMK A01 T01540087  RH  064%=      5-min Rain = 0
KTA1 121304Z 02003KT 16/09 A3008 RMK A01 T01550087  RH  064%=      5-min Rain = 0
KTA1 121305Z 02003KT 16/09 A3008 RMK A01 T01550088  RH  064%=      5-min Rain = 0
KTA1 121306Z 01003KT 16/09 A3008 RMK A01 T01560089  RH  064%=      5-min Rain = 0
KTA1 121307Z 01003KT 16/09 A3008 RMK A01 T01570089  RH  064%=      5-min Rain = 0
KTA1 121308Z 01003KT 16/09 A3008 RMK A01 T01580089  RH  063%=      5-min Rain = 0
KTA1 121309Z 00003KT 16/09 A3008 RMK A01 T01600090  RH  063%=      5-min Rain = 0
KTA1 121310Z 00003KT 16/09 A3008 RMK A01 T01600090  RH  063%=      5-min Rain = 0
KTA1 121311Z 00003KT 16/09 A3008 RMK A01 T01610090  RH  063%=      5-min Rain = 0
KTA1 121312Z 00003KT 16/09 A3008 RMK A01 T01620091  RH  063%=      5-min Rain = 0
KTA1 121313Z 00003KT 16/09 A3008 RMK A01 T01630091  RH  062%=      5-min Rain = 0
KTA1 121314Z 00003KT 16/09 A3008 RMK A01 T01630091  RH  062%=      5-min Rain = 0
KTA1 121315Z 00003KT 16/09 A3008 RMK A01 T01640092  RH  062%=      5-min Rain = 0
KTA1 121316Z 36003KT 17/09 A3008 RMK A01 T01650093  RH  062%=      5-min Rain = 0
KTA1 121317Z 35003KT 17/09 A3008 RMK A01 T01650093  RH  062%=      5-min Rain = 0
KTA1 121318Z 35002KT 17/09 A3008 RMK A01 T01660094  RH  062%=      5-min Rain = 0
KTA1 121319Z 34002KT 17/09 A3008 RMK A01 T01670094  RH  062%=      5-min Rain = 0
KTA1 121320Z 33002KT 17/10 A3008 RMK A01 T01680095  RH  062%=      5-min Rain = 0
KTA1 121321Z 32002KT 17/10 A3008 RMK A01 T01690097  RH  062%=      5-min Rain = 0
KTA1 121322Z 32002KT 17/10 A3008 RMK A01 T01690097  RH  062%=      5-min Rain = 0
KTA1 121323Z 32002KT 17/10 A3008 RMK A01 T01700097  RH  062%=      5-min Rain = 0
KTA1 121324Z 31002KT 17/10 A3008 RMK A01 T01700097  RH  062%=      5-min Rain = 0
KTA1 121325Z 31002KT 17/10 A3008 RMK A01 T01700096  RH  062%=      5-min Rain = 0
KTA1 121326Z 30002KT 17/10 A3009 RMK A01 T01700096  RH  062%=      5-min Rain = 0
KTA1 121327Z 30002KT 17/10 A3009 RMK A01 T01700096  RH  062%=      5-min Rain = 0
KTA1 121328Z 30002KT 17/10 A3008 RMK A01 T01710096  RH  061%=      5-min Rain = 0
KTA1 121329Z 31002KT 17/10 A3009 RMK A01 T01710095  RH  061%=      5-min Rain = 0
KTA1 121330Z 31002KT 17/10 A3009 RMK A01 T01710095  RH  061%=      5-min Rain = 0
KTA1 121331Z 31002KT 17/10 A3009 RMK A01 T01710095  RH  061%=      5-min Rain = 0
KTA1 121332Z 31002KT 17/10 A3009 RMK A01 T01710095  RH  061%=      5-min Rain = 0
KTA1 121333Z 31002KT 17/10 A3009 RMK A01 T01710095  RH  061%=      5-min Rain = 0
KTA1 121334Z 31002KT 17/10 A3009 RMK A01 T01720096  RH  061%=      5-min Rain = 0
KTA1 121335Z 31002KT 17/10 A3009 RMK A01 T01730096  RH  061%=      5-min Rain = 0
KTA1 121336Z 31002KT 17/10 A3009 RMK A01 T01730097  RH  061%=      5-min Rain = 0
KTA1 121337Z 31002KT 17/10 A3009 RMK A01 T01740098  RH  061%=      5-min Rain = 0
KTA1 121338Z 31002KT 18/10 A3009 RMK A01 T01750099  RH  061%=      5-min Rain = 0
KTA1 121339Z 31002KT 18/10 A3009 RMK A01 T01760099  RH  061%=      5-min Rain = 0
KTA1 121340Z 31002KT 18/10 A3009 RMK A01 T01770100  RH  060%=      5-min Rain = 0
KTA1 121341Z 31002KT 18/10 A3009 RMK A01 T01780100  RH  060%=      5-min Rain = 0
KTA1 121342Z 31002KT 18/10 A3009 RMK A01 T01790101  RH  060%=      5-min Rain = 0
KTA1 121343Z 31002KT 18/10 A3009 RMK A01 T01790101  RH  060%=      5-min Rain = 0
KTA1 121344Z 31001KT 18/10 A3009 RMK A01 T01810103  RH  060%=      5-min Rain = 0
KTA1 121345Z 31001KT 18/10 A3009 RMK A01 T01820104  RH  060%=      5-min Rain = 0
KTA1 121346Z 31001KT 18/10 A3009 RMK A01 T01830103  RH  060%=      5-min Rain = 0
KTA1 121347Z 31001KT 18/10 A3009 RMK A01 T01840103  RH  059%=      5-min Rain = 0
KTA1 121348Z 32001KT 18/10 A3009 RMK A01 T01840103  RH  059%=      5-min Rain = 0
KTA1 121349Z 32001KT 18/10 A3009 RMK A01 T01840104  RH  059%=      5-min Rain = 0
KTA1 121350Z 32001KT 19/11 A3009 RMK A01 T01850105  RH  060%=      5-min Rain = 0
KTA1 121351Z 32001KT 19/11 A3009 RMK A01 T01860105  RH  059%=      5-min Rain = 0
KTA1 121352Z 32001KT 19/11 A3009 RMK A01 T01870106  RH  059%=      5-min Rain = 0
KTA1 121353Z 32001KT 19/11 A3009 RMK A01 T01880107  RH  059%=      5-min Rain = 0
KTA1 121354Z 32001KT 19/11 A3009 RMK A01 T01890105  RH  058%=      5-min Rain = 0
KTA1 121355Z 32001KT 19/11 A3009 RMK A01 T01900105  RH  058%=      5-min Rain = 0
KTA1 121356Z 32001KT 19/10 A3009 RMK A01 T01900103  RH  057%=      5-min Rain = 0
KTA1 121357Z 32001KT 19/11 A3009 RMK A01 T01900105  RH  058%=      5-min Rain = 0
KTA1 121358Z 32001KT 19/11 A3009 RMK A01 T01910106  RH  058%=      5-min Rain = 0
KTA1 121359Z 32001KT 19/11 A3009 RMK A01 T01920106  RH  058%=      5-min Rain = 0
KTA1 121400Z 31001KT 19/11 A3009 RMK A01 T01920108  RH  058%=      5-min Rain = 0
KTA1 121401Z 31001KT 19/11 A3009 RMK A01 T01930108  RH  058%=      5-min Rain = 0
KTA1 121402Z 31001KT 20/11 A3009 RMK A01 T01950110  RH  058%=      5-min Rain = 0
KTA1 121403Z 31001KT 20/11 A3009 RMK A01 T01950109  RH  057%=      5-min Rain = 0
KTA1 121404Z 30001KT 20/11 A3009 RMK A01 T01960108  RH  057%=      5-min Rain = 0
KTA1 121405Z 30001KT 20/11 A3009 RMK A01 T01970109  RH  057%=      5-min Rain = 0
KTA1 121406Z 29001KT 20/11 A3009 RMK A01 T01970108  RH  056%=      5-min Rain = 0
KTA1 121407Z 29000KT 20/11 A3009 RMK A01 T01980109  RH  056%=      5-min Rain = 0
KTA1 121408Z 29001KT 20/11 A3009 RMK A01 T01990108  RH  056%=      5-min Rain = 0
KTA1 121409Z 29001KT 20/11 A3009 RMK A01 T02000105  RH  054%=      5-min Rain = 0
KTA1 121410Z 29001KT 20/11 A3009 RMK A01 T02010105  RH  054%=      5-min Rain = 0
KTA1 121411Z 29001KT 20/10 A3009 RMK A01 T02010104  RH  054%=      5-min Rain = 0
KTA1 121412Z 29001KT 20/11 A3009 RMK A01 T02020106  RH  054%=      5-min Rain = 0
KTA1 121413Z 29000KT 20/11 A3009 RMK A01 T02030105  RH  053%=      5-min Rain = 0
KTA1 121414Z 29000KT 20/11 A3009 RMK A01 T02040105  RH  053%=      5-min Rain = 0
KTA1 121415Z 29000KT 21/11 A3009 RMK A01 T02060107  RH  053%=      5-min Rain = 0
KTA1 121416Z 00000KT 21/11 A3009 RMK A01 T02070106  RH  052%=      5-min Rain = 0
KTA1 121417Z 00000KT 21/11 A3009 RMK A01 T02080105  RH  052%=      5-min Rain = 0
KTA1 121418Z 00000KT 21/10 A3009 RMK A01 T02100103  RH  050%=      5-min Rain = 0
KTA1 121419Z 00000KT 21/10 A3009 RMK A01 T02110104  RH  050%=      5-min Rain = 0
KTA1 121420Z 00000KT 21/10 A3009 RMK A01 T02120104  RH  050%=      5-min Rain = 0
KTA1 121421Z 00000KT 21/10 A3009 RMK A01 T02140104  RH  049%=      5-min Rain = 0
KTA1 121422Z 00000KT 22/10 A3009 RMK A01 T02160102  RH  048%=      5-min Rain = 0
KTA1 121423Z 00000KT 22/10 A3009 RMK A01 T02170102  RH  048%=      5-min Rain = 0
KTA1 121424Z 00000KT 22/10 A3009 RMK A01 T02190101  RH  047%=      5-min Rain = 0
KTA1 121425Z 00000KT 22/10 A3009 RMK A01 T02210103  RH  047%=      5-min Rain = 0
KTA1 121426Z 00000KT 22/11 A3009 RMK A01 T02240106  RH  047%=      5-min Rain = 0
KTA1 121427Z 10001KT 23/11 A3009 RMK A01 T02280106  RH  046%=      5-min Rain = 0
KTA1 121428Z 11001KT 23/11 A3009 RMK A01 T02320106  RH  045%=      5-min Rain = 0
KTA1 121429Z 12001KT 24/11 A3009 RMK A01 T02350106  RH  044%=      5-min Rain = 0
KTA1 121430Z 13001KT 24/11 A3009 RMK A01 T02360108  RH  044%=      5-min Rain = 0
KTA1 121431Z 11002KT 24/11 A3009 RMK A01 T02370109  RH  044%=      5-min Rain = 0
KTA1 121432Z 10001KT 24/11 A3009 RMK A01 T02370107  RH  044%=      5-min Rain = 0
KTA1 121433Z 11001KT 24/11 A3009 RMK A01 T02360109  RH  045%=      5-min Rain = 0
KTA1 121434Z 12002KT 24/11 A3009 RMK A01 T02350109  RH  045%=      5-min Rain = 0
KTA1 121435Z 11001KT 24/11 A3009 RMK A01 T02350108  RH  045%=      5-min Rain = 0
KTA1 121436Z 12002KT 24/11 A3009 RMK A01 T02350108  RH  045%=      5-min Rain = 0
KTA1 121437Z 13002KT 24/11 A3009 RMK A01 T02350106  RH  044%=      5-min Rain = 0
KTA1 121438Z 13002KT 23/11 A3009 RMK A01 T02340105  RH  044%=      5-min Rain = 0
KTA1 121439Z 12002KT 23/11 A3009 RMK A01 T02340105  RH  044%=      5-min Rain = 0
KTA1 121440Z 12003KT 23/10 A3009 RMK A01 T02330103  RH  044%=      5-min Rain = 0
KTA1 121441Z 11002KT 23/10 A3009 RMK A01 T02330104  RH  044%=      5-min Rain = 0
KTA1 121442Z 13002KT 23/11 A3009 RMK A01 T02320105  RH  044%=      5-min Rain = 0
KTA1 121443Z 12002KT 23/11 A3009 RMK A01 T02320105  RH  045%=      5-min Rain = 0
KTA1 121444Z 11002KT 23/10 A3009 RMK A01 T02320103  RH  044%=      5-min Rain = 0
KTA1 121445Z 10002KT 23/10 A3009 RMK A01 T02320103  RH  044%=      5-min Rain = 0
KTA1 121446Z 12002KT 23/10 A3009 RMK A01 T02310104  RH  045%=      5-min Rain = 0
KTA1 121447Z 12002KT 23/11 A3009 RMK A01 T02310105  RH  045%=      5-min Rain = 0
KTA1 121448Z 11002KT 23/11 A3009 RMK A01 T02310105  RH  045%=      5-min Rain = 0
KTA1 121449Z 13002KT 23/10 A3009 RMK A01 T02320104  RH  044%=      5-min Rain = 0
KTA1 121450Z 14002KT 23/11 A3009 RMK A01 T02330107  RH  045%=      5-min Rain = 0
KTA1 121451Z 12003KT 23/11 A3009 RMK A01 T02340106  RH  044%=      5-min Rain = 0
KTA1 121452Z 13002KT 24/10 A3009 RMK A01 T02350104  RH  044%=      5-min Rain = 0
KTA1 121453Z 11003KT 24/11 A3009 RMK A01 T02350106  RH  044%=      5-min Rain = 0
KTA1 121454Z 12002KT 24/11 A3009 RMK A01 T02360105  RH  043%=      5-min Rain = 0
KTA1 121455Z 13002KT 24/11 A3009 RMK A01 T02360105  RH  043%=      5-min Rain = 0
KTA1 121456Z 12003KT 24/10 A3009 RMK A01 T02370104  RH  043%=      5-min Rain = 0
KTA1 121457Z 12003KT 24/10 A3009 RMK A01 T02380102  RH  042%=      5-min Rain = 0
KTA1 121458Z 13003KT 24/10 A3009 RMK A01 T02380103  RH  043%=      5-min Rain = 0
KTA1 121459Z 12002KT 24/10 A3009 RMK A01 T02380103  RH  042%=      5-min Rain = 0
KTA1 121500Z 10002KT 24/10 A3009 RMK A01 T02390104  RH  042%=      5-min Rain = 0
KTA1 121501Z 12003KT 24/11 A3009 RMK A01 T02400105  RH  043%=      5-min Rain = 0
KTA1 121502Z 10002KT 24/11 A3009 RMK A01 T02420105  RH  042%=      5-min Rain = 0
KTA1 121503Z 10002KT 24/11 A3009 RMK A01 T02430105  RH  042%=      5-min Rain = 0
KTA1 121504Z 08002KT 24/10 A3009 RMK A01 T02430104  RH  042%=      5-min Rain = 0
KTA1 121505Z 09002KT 24/11 A3008 RMK A01 T02420105  RH  042%=      5-min Rain = 0
KTA1 121506Z 13002KT 24/10 A3008 RMK A01 T02420104  RH  042%=      5-min Rain = 0
KTA1 121507Z 14002KT 24/10 A3008 RMK A01 T02430103  RH  041%=      5-min Rain = 0
KTA1 121508Z 14001KT 24/10 A3008 RMK A01 T02440103  RH  041%=      5-min Rain = 0
KTA1 121509Z 14001KT 25/10 A3008 RMK A01 T02450103  RH  041%=      5-min Rain = 0
KTA1 121510Z 13001KT 25/10 A3008 RMK A01 T02460103  RH  041%=      5-min Rain = 0
KTA1 121511Z 12001KT 25/10 A3008 RMK A01 T02460103  RH  040%=      5-min Rain = 0
KTA1 121512Z 12002KT 25/10 A3008 RMK A01 T02480104  RH  040%=      5-min Rain = 0
KTA1 121513Z 10001KT 25/10 A3008 RMK A01 T02490104  RH  040%=      5-min Rain = 0
KTA1 121514Z 11000KT 25/11 A3008 RMK A01 T02510105  RH  040%=      5-min Rain = 0
KTA1 121515Z 22000KT 25/11 A3008 RMK A01 T02530106  RH  039%=      5-min Rain = 0
KTA1 121516Z 21002KT 25/11 A3008 RMK A01 T02540105  RH  039%=      5-min Rain = 0
KTA1 121517Z 17002KT 25/11 A3008 RMK A01 T02520106  RH  040%=      5-min Rain = 0
KTA1 121518Z 14002KT 25/11 A3008 RMK A01 T02520107  RH  040%=      5-min Rain = 0
KTA1 121519Z 13002KT 25/11 A3008 RMK A01 T02520106  RH  040%=      5-min Rain = 0
KTA1 121520Z 13002KT 25/11 A3008 RMK A01 T02520107  RH  040%=      5-min Rain = 0
KTA1 121521Z 17002KT 25/11 A3008 RMK A01 T02530109  RH  040%=      5-min Rain = 0
KTA1 121522Z 19001KT 25/11 A3008 RMK A01 T02540108  RH  040%=      5-min Rain = 0
KTA1 121523Z 15001KT 26/11 A3008 RMK A01 T02550109  RH  040%=      5-min Rain = 0
KTA1 121524Z 15002KT 26/11 A3008 RMK A01 T02550110  RH  040%=      5-min Rain = 0
KTA1 121525Z 14002KT 26/11 A3008 RMK A01 T02560109  RH  040%=      5-min Rain = 0
KTA1 121526Z 16003KT 26/11 A3008 RMK A01 T02550110  RH  040%=      5-min Rain = 0
KTA1 121527Z 14002KT 26/11 A3008 RMK A01 T02550109  RH  040%=      5-min Rain = 0
KTA1 121528Z 14001KT 26/11 A3008 RMK A01 T02550107  RH  040%=      5-min Rain = 0
KTA1 121529Z 17001KT 26/11 A3008 RMK A01 T02560106  RH  039%=      5-min Rain = 0
KTA1 121530Z 19003KT 26/11 A3008 RMK A01 T02570106  RH  039%=      5-min Rain = 0
KTA1 121531Z 18003KT 26/10 A3008 RMK A01 T02580104  RH  038%=      5-min Rain = 0
KTA1 121532Z 18003KT 26/10 A3008 RMK A01 T02570103  RH  038%=      5-min Rain = 0
KTA1 121533Z 21004KT 26/10 A3008 RMK A01 T02570104  RH  038%=      5-min Rain = 0
KTA1 121534Z 22003KT 26/10 A3008 RMK A01 T02570102  RH  037%=      5-min Rain = 0
KTA1 121535Z 22002KT 26/10 A3008 RMK A01 T02560101  RH  038%=      5-min Rain = 0
KTA1 121536Z 19003KT 26/10 A3008 RMK A01 T02550101  RH  038%=      5-min Rain = 0
KTA1 121537Z 20003KT 26/10 A3008 RMK A01 T02550102  RH  038%=      5-min Rain = 0
KTA1 121538Z 23004KT 26/10 A3008 RMK A01 T02550103  RH  038%=      5-min Rain = 0
KTA1 121539Z 24003KT 26/10 A3008 RMK A01 T02550102  RH  038%=      5-min Rain = 0
KTA1 121540Z 24003KT 26/10 A3008 RMK A01 T02550102  RH  038%=      5-min Rain = 0
KTA1 121541Z 22004KT 25/10 A3008 RMK A01 T02540102  RH  038%=      5-min Rain = 0
KTA1 121542Z 22004KT 25/10 A3008 RMK A01 T02540103  RH  039%=      5-min Rain = 0
KTA1 121543Z 22004KT 26/10 A3009 RMK A01 T02550103  RH  038%=      5-min Rain = 0
KTA1 121544Z 21004KT 26/10 A3009 RMK A01 T02550102  RH  038%=      5-min Rain = 0
KTA1 121545Z 19003KT 26/10 A3009 RMK A01 T02550104  RH  039%=      5-min Rain = 0
KTA1 121546Z 18003KT 26/10 A3009 RMK A01 T02560103  RH  038%=      5-min Rain = 0
KTA1 121547Z 17003KT 26/10 A3009 RMK A01 T02570103  RH  038%=      5-min Rain = 0
KTA1 121548Z 20002KT 26/10 A3009 RMK A01 T02570104  RH  038%=      5-min Rain = 0
KTA1 121549Z 19004KT 26/11 A3009 RMK A01 T02580105  RH  038%=      5-min Rain = 0
KTA1 121550Z 19003KT 26/10 A3009 RMK A01 T02580104  RH  038%=      5-min Rain = 0
KTA1 121551Z 20003KT 26/11 A3009 RMK A01 T02580105  RH  038%=      5-min Rain = 0
KTA1 121552Z 22003KT 26/11 A3009 RMK A01 T02590106  RH  038%=      5-min Rain = 0
KTA1 121553Z 18003KT 26/11 A3009 RMK A01 T02600107  RH  038%=      5-min Rain = 0
KTA1 121554Z 17003KT 26/11 A3008 RMK A01 T02620107  RH  038%=      5-min Rain = 0
KTA1 121555Z 21003KT 26/11 A3008 RMK A01 T02640108  RH  038%=      5-min Rain = 0
KTA1 121556Z 22003KT 26/11 A3008 RMK A01 T02640106  RH  037%=      5-min Rain = 0
KTA1 121557Z 17001KT 26/11 A3008 RMK A01 T02620105  RH  037%=      5-min Rain = 0
KTA1 121558Z 20002KT 26/11 A3008 RMK A01 T02620106  RH  037%=      5-min Rain = 0
KTA1 121559Z 20003KT 26/11 A3008 RMK A01 T02630107  RH  038%=      5-min Rain = 0
KTA1 121600Z 20002KT 26/11 A3008 RMK A01 T02630106  RH  037%=      5-min Rain = 0
KTA1 121601Z 19002KT 26/11 A3008 RMK A01 T02640108  RH  038%=      5-min Rain = 0
KTA1 121602Z 19005KT 27/11 A3008 RMK A01 T02660107  RH  037%=      5-min Rain = 0
KTA1 121603Z 19005KT 27/11 A3008 RMK A01 T02650106  RH  037%=      5-min Rain = 0
KTA1 121604Z 19005KT 26/11 A3008 RMK A01 T02640108  RH  038%=      5-min Rain = 0
KTA1 121605Z 19005KT 26/11 A3008 RMK A01 T02640108  RH  038%=      5-min Rain = 0
KTA1 121606Z 22004KT 27/11 A3008 RMK A01 T02650108  RH  037%=      5-min Rain = 0
KTA1 121607Z 22004KT 27/11 A3008 RMK A01 T02660105  RH  036%=      5-min Rain = 0
KTA1 121608Z 22004KT 27/11 A3008 RMK A01 T02660106  RH  037%=      5-min Rain = 0
KTA1 121609Z 21004KT 27/11 A3008 RMK A01 T02660107  RH  037%=      5-min Rain = 0
KTA1 121610Z 22002KT 27/11 A3008 RMK A01 T02670106  RH  037%=      5-min Rain = 0
KTA1 121611Z 20004KT 27/11 A3008 RMK A01 T02670106  RH  036%=      5-min Rain = 0
KTA1 121612Z 19004KT 27/11 A3008 RMK A01 T02680106  RH  036%=      5-min Rain = 0
KTA1 121613Z 24004KT 27/11 A3008 RMK A01 T02690107  RH  036%=      5-min Rain = 0
KTA1 121614Z 23004KT 27/11 A3008 RMK A01 T02690105  RH  036%=      5-min Rain = 0
KTA1 121615Z 25003KT 27/11 A3008 RMK A01 T02680106  RH  036%=      5-min Rain = 0
KTA1 121616Z 29005KT 27/11 A3008 RMK A01 T02680106  RH  036%=      5-min Rain = 0
KTA1 121617Z 26004KT 27/11 A3008 RMK A01 T02700105  RH  036%=      5-min Rain = 0
KTA1 121618Z 24002KT 27/10 A3008 RMK A01 T02720102  RH  035%=      5-min Rain = 0
KTA1 121619Z 24004KT 27/10 A3008 RMK A01 T02720103  RH  035%=      5-min Rain = 0
KTA1 121620Z 25004KT 27/10 A3008 RMK A01 T02720104  RH  035%=      5-min Rain = 0
KTA1 121621Z 26002KT 27/10 A3008 RMK A01 T02720102  RH  034%=      5-min Rain = 0
KTA1 121622Z 30001KT 27/10 A3008 RMK A01 T02720103  RH  035%=      5-min Rain = 0
KTA1 121623Z 17001KT 27/10 A3008 RMK A01 T02720104  RH  035%=      5-min Rain = 0
KTA1 121624Z 22004KT 28/11 A3008 RMK A01 T02750106  RH  035%=      5-min Rain = 0
KTA1 121625Z 19006KT 28/11 A3008 RMK A01 T02770105  RH  034%=      5-min Rain = 0
KTA1 121626Z 18004KT 28/11 A3008 RMK A01 T02770105  RH  034%=      5-min Rain = 0
KTA1 121627Z 19003KT 28/11 A3008 RMK A01 T02760106  RH  035%=      5-min Rain = 0
KTA1 121628Z 20005KT 28/11 A3008 RMK A01 T02780106  RH  034%=      5-min Rain = 0
KTA1 121629Z 21004KT 28/11 A3008 RMK A01 T02790106  RH  034%=      5-min Rain = 0
KTA1 121630Z 22004KT 28/10 A3008 RMK A01 T02800104  RH  033%=      5-min Rain = 0
KTA1 121631Z 24002KT 28/10 A3008 RMK A01 T02780104  RH  034%=      5-min Rain = 0
KTA1 121632Z 20002KT 28/11 A3007 RMK A01 T02770105  RH  034%=      5-min Rain = 0
KTA1 121633Z 19003KT 28/11 A3007 RMK A01 T02790107  RH  034%=      5-min Rain = 0
KTA1 121634Z 19005KT 28/11 A3007 RMK A01 T02810105  RH  033%=      5-min Rain = 0
KTA1 121635Z 20005KT 28/10 A3007 RMK A01 T02820104  RH  033%=      5-min Rain = 0
KTA1 121636Z 19003KT 28/11 A3007 RMK A01 T02820105  RH  033%=      5-min Rain = 0
KTA1 121637Z 20004KT 28/11 A3007 RMK A01 T02830105  RH  033%=      5-min Rain = 0
KTA1 121638Z 22004KT 28/10 A3007 RMK A01 T02840104  RH  033%=      5-min Rain = 0
KTA1 121639Z 22002KT 28/10 A3007 RMK A01 T02830103  RH  033%=      5-min Rain = 0
KTA1 121640Z 24001KT 28/10 A3007 RMK A01 T02820103  RH  033%=      5-min Rain = 0
KTA1 121641Z 19000KT 28/10 A3007 RMK A01 T02830103  RH  033%=      5-min Rain = 0
KTA1 121642Z 16003KT 29/10 A3007 RMK A01 T02870104  RH  032%=      5-min Rain = 0
KTA1 121643Z 16005KT 29/11 A3007 RMK A01 T02890106  RH  032%=      5-min Rain = 0
KTA1 121644Z 17005KT 29/11 A3007 RMK A01 T02900106  RH  032%=      5-min Rain = 0
KTA1 121645Z 13002KT 29/10 A3007 RMK A01 T02890104  RH  032%=      5-min Rain = 0
KTA1 121646Z 12003KT 29/10 A3007 RMK A01 T02870103  RH  032%=      5-min Rain = 0
KTA1 121647Z 19005KT 29/11 A3007 RMK A01 T02870105  RH  032%=      5-min Rain = 0
KTA1 121648Z 20005KT 29/10 A3007 RMK A01 T02880104  RH  032%=      5-min Rain = 0
KTA1 121649Z 25004KT 29/10 A3007 RMK A01 T02880102  RH  031%=      5-min Rain = 0
KTA1 121650Z 23003KT 29/10 A3007 RMK A01 T02870102  RH  032%=      5-min Rain = 0
KTA1 121651Z 20005KT 29/10 A3007 RMK A01 T02860104  RH  032%=      5-min Rain = 0
KTA1 121652Z 18005KT 29/11 A3007 RMK A01 T02870105  RH  032%=      5-min Rain = 0
KTA1 121653Z 18004KT 29/11 A3007 RMK A01 T02880105  RH  032%=      5-min Rain = 0
KTA1 121654Z 15002KT 29/10 A3007 RMK A01 T02890104  RH  032%=      5-min Rain = 0
KTA1 121655Z 14003KT 29/10 A3007 RMK A01 T02900104  RH  032%=      5-min Rain = 0
KTA1 121656Z 16003KT 29/10 A3007 RMK A01 T02910104  RH  031%=      5-min Rain = 0
KTA1 121657Z 22002KT 29/11 A3007 RMK A01 T02920105  RH  031%=      5-min Rain = 0
KTA1 121658Z 27006KT 29/11 A3007 RMK A01 T02930105  RH  031%=      5-min Rain = 0
KTA1 121659Z 28006KT 30/10 A3007 RMK A01 T02950104  RH  031%=      5-min Rain = 0
KTA1 121700Z 26004KT 29/10 A3007 RMK A01 T02940101  RH  030%=      5-min Rain = 0
KTA1 121701Z 29003KT 29/10 A3007 RMK A01 T02920101  RH  031%=      5-min Rain = 0
KTA1 121702Z 31002KT 29/10 A3007 RMK A01 T02910101  RH  031%=      5-min Rain = 0
KTA1 121703Z 34001KT 29/10 A3007 RMK A01 T02900100  RH  031%=      5-min Rain = 0
KTA1 121704Z 02001KT 29/10 A3007 RMK A01 T02890100  RH  031%=      5-min Rain = 0
KTA1 121705Z 02001KT 29/10 A3007 RMK A01 T02900099  RH  031%=      5-min Rain = 0
KTA1 121706Z 34002KT 29/10 A3007 RMK A01 T02900099  RH  030%=      5-min Rain = 0
KTA1 121707Z 02001KT 29/10 A3007 RMK A01 T02900099  RH  030%=      5-min Rain = 0
KTA1 121708Z 17000KT 29/10 A3007 RMK A01 T02890099  RH  031%=      5-min Rain = 0
KTA1 121709Z 15001KT 29/10 A3007 RMK A01 T02890099  RH  031%=      5-min Rain = 0
KTA1 121710Z 19002KT 29/10 A3006 RMK A01 T02920100  RH  030%=      5-min Rain = 0
KTA1 121711Z 22003KT 29/10 A3006 RMK A01 T02940103  RH  030%=      5-min Rain = 0
KTA1 121712Z 22004KT 30/10 A3006 RMK A01 T02960102  RH  030%=      5-min Rain = 0
KTA1 121713Z 23005KT 30/10 A3006 RMK A01 T02970102  RH  030%=      5-min Rain = 0
KTA1 121714Z 22004KT 30/10 A3006 RMK A01 T02970103  RH  030%=      5-min Rain = 0
KTA1 121715Z 22004KT 30/10 A3006 RMK A01 T02980103  RH  030%=      5-min Rain = 0
KTA1 121716Z 23003KT 30/10 A3006 RMK A01 T02980101  RH  029%=      5-min Rain = 0
KTA1 121717Z 29002KT 30/10 A3006 RMK A01 T02970103  RH  030%=      5-min Rain = 0
KTA1 121718Z 28004KT 30/11 A3006 RMK A01 T02980105  RH  030%=      5-min Rain = 0
KTA1 121719Z 28004KT 30/10 A3006 RMK A01 T03010102  RH  029%=      5-min Rain = 0
KTA1 121720Z 30003KT 30/10 A3006 RMK A01 T03000101  RH  029%=      5-min Rain = 0
KTA1 121721Z 35002KT 30/10 A3006 RMK A01 T02980100  RH  029%=      5-min Rain = 0
KTA1 121722Z 35003KT 30/10 A3006 RMK A01 T02980100  RH  029%=      5-min Rain = 0
KTA1 121723Z 01002KT 30/10 A3006 RMK A01 T02980100  RH  029%=      5-min Rain = 0
KTA1 121724Z 02002KT 30/10 A3006 RMK A01 T02990101  RH  029%=      5-min Rain = 0
KTA1 121725Z 35001KT 30/10 A3006 RMK A01 T03020104  RH  029%=      5-min Rain = 0
KTA1 121726Z 00000KT 31/10 A3006 RMK A01 T03050101  RH  028%=      5-min Rain = 0
KTA1 121727Z 32001KT 31/10 A3006 RMK A01 T03070103  RH  028%=      5-min Rain = 0
KTA1 121728Z 31003KT 31/10 A3006 RMK A01 T03090104  RH  028%=      5-min Rain = 0
KTA1 121729Z 31003KT 31/10 A3006 RMK A01 T03070102  RH  028%=      5-min Rain = 0
KTA1 121730Z 29003KT 30/10 A3005 RMK A01 T03040102  RH  029%=      5-min Rain = 0
KTA1 121731Z 29003KT 30/10 A3005 RMK A01 T03030100  RH  028%=      5-min Rain = 0
KTA1 121732Z 29006KT 30/10 A3005 RMK A01 T03030103  RH  029%=      5-min Rain = 0
KTA1 121733Z 29006KT 30/10 A3005 RMK A01 T03030100  RH  028%=      5-min Rain = 0
KTA1 121734Z 29007KT 30/10 A3005 RMK A01 T03030100  RH  028%=      5-min Rain = 0
KTA1 121735Z 29007KT 30/10 A3005 RMK A01 T03030101  RH  029%=      5-min Rain = 0
KTA1 121736Z 31009KT 30/10 A3005 RMK A01 T03030101  RH  029%=      5-min Rain = 0
KTA1 121737Z 29009KT 31/10 A3005 RMK A01 T03050102  RH  029%=      5-min Rain = 0
KTA1 121738Z 30007KT 31/10 A3005 RMK A01 T03070100  RH  028%=      5-min Rain = 0
KTA1 121739Z 30007KT 31/10 A3005 RMK A01 T03070101  RH  028%=      5-min Rain = 0
KTA1 121740Z 31006KT 31/10 A3005 RMK A01 T03080100  RH  028%=      5-min Rain = 0
KTA1 121741Z 32005KT 31/10 A3005 RMK A01 T03070098  RH  028%=      5-min Rain = 0
KTA1 121742Z 33004KT 31/10 A3005 RMK A01 T03050099  RH  028%=      5-min Rain = 0
KTA1 121743Z 00003KT 31/10 A3005 RMK A01 T03060101  RH  028%=      5-min Rain = 0
KTA1 121744Z 02003KT 31/10 A3005 RMK A01 T03070099  RH  028%=      5-min Rain = 0
KTA1 121745Z 06002KT 31/10 A3005 RMK A01 T03070099  RH  027%=      5-min Rain = 0
KTA1 121746Z 35002KT 31/10 A3005 RMK A01 T03080100  RH  028%=      5-min Rain = 0
KTA1 121747Z 30003KT 31/10 A3005 RMK A01 T03080098  RH  027%=      5-min Rain = 0
KTA1 121748Z 28005KT 31/10 A3005 RMK A01 T03080100  RH  028%=      5-min Rain = 0
KTA1 121749Z 27005KT 31/10 A3005 RMK A01 T03080099  RH  027%=      5-min Rain = 0
KTA1 121750Z 25004KT 31/10 A3005 RMK A01 T03070098  RH  027%=      5-min Rain = 0
KTA1 121751Z 29005KT 31/10 A3005 RMK A01 T03060099  RH  028%=      5-min Rain = 0
KTA1 121752Z 30008KT 31/10 A3005 RMK A01 T03070101  RH  028%=      5-min Rain = 0
KTA1 121753Z 31009KT 31/10 A3005 RMK A01 T03090100  RH  027%=      5-min Rain = 0
KTA1 121754Z 29007KT 31/10 A3005 RMK A01 T03090100  RH  027%=      5-min Rain = 0
KTA1 121755Z 28008KT 31/10 A3005 RMK A01 T03110101  RH  027%=      5-min Rain = 0
KTA1 121756Z 27006KT 31/10 A3005 RMK A01 T03110099  RH  027%=      5-min Rain = 0
KTA1 121757Z 26005KT 31/10 A3005 RMK A01 T03090098  RH  027%=      5-min Rain = 0
KTA1 121758Z 27004KT 31/10 A3005 RMK A01 T03070098  RH  027%=      5-min Rain = 0
KTA1 121759Z 26004KT 31/10 A3004 RMK A01 T03070098  RH  028%=      5-min Rain = 0
KTA1 121800Z 28006KT 31/10 A3004 RMK A01 T03080099  RH  027%=      5-min Rain = 0
KTA1 121801Z 30003KT 31/10 A3004 RMK A01 T03070097  RH  027%=      5-min Rain = 0
KTA1 121802Z 30002KT 31/10 A3004 RMK A01 T03070098  RH  027%=      5-min Rain = 0
KTA1 121803Z 30004KT 31/10 A3004 RMK A01 T03090100  RH  027%=      5-min Rain = 0
KTA1 121804Z 31004KT 31/10 A3004 RMK A01 T03110099  RH  027%=      5-min Rain = 0
KTA1 121805Z 35004KT 31/10 A3004 RMK A01 T03110099  RH  027%=      5-min Rain = 0
KTA1 121806Z 35006KT 31/10 A3004 RMK A01 T03120101  RH  027%=      5-min Rain = 0
KTA1 121807Z 35006KT 31/10 A3004 RMK A01 T03140102  RH  027%=      5-min Rain = 0
KTA1 121808Z 34007KT 32/11 A3004 RMK A01 T03170105  RH  027%=      5-min Rain = 0
KTA1 121809Z 31005G10KT 32/10 A3004 RMK A01 T03170104  RH  027%=      5-min Rain = 0
KTA1 121810Z 30008KT 32/10 A3004 RMK A01 T03160101  RH  026%=      5-min Rain = 0
KTA1 121811Z 30006KT 31/10 A3004 RMK A01 T03140099  RH  026%=      5-min Rain = 0
KTA1 121812Z 32004KT 31/10 A3004 RMK A01 T03110097  RH  027%=      5-min Rain = 0
KTA1 121813Z 26006KT 31/10 A3004 RMK A01 T03100100  RH  027%=      5-min Rain = 0
KTA1 121814Z 28007KT 31/10 A3004 RMK A01 T03120102  RH  027%=      5-min Rain = 0
KTA1 121815Z 28004KT 31/10 A3004 RMK A01 T03140100  RH  027%=      5-min Rain = 0
KTA1 121816Z 31003KT 31/10 A3004 RMK A01 T03130100  RH  027%=      5-min Rain = 0
KTA1 121817Z 35002KT 31/10 A3004 RMK A01 T03130099  RH  027%=      5-min Rain = 0
KTA1 121818Z 26001KT 31/10 A3004 RMK A01 T03130099  RH  027%=      5-min Rain = 0
KTA1 121819Z 00000KT 31/10 A3004 RMK A01 T03140100  RH  027%=      5-min Rain = 0
KTA1 121820Z 31003KT 32/10 A3004 RMK A01 T03160101  RH  027%=      5-min Rain = 0
KTA1 121821Z 30004KT 32/10 A3004 RMK A01 T03170102  RH  027%=      5-min Rain = 0
KTA1 121822Z 30002KT 32/10 A3004 RMK A01 T03180102  RH  026%=      5-min Rain = 0
KTA1 121823Z 34007KT 32/10 A3004 RMK A01 T03190103  RH  026%=      5-min Rain = 0
KTA1 121824Z 34005KT 32/10 A3004 RMK A01 T03190103  RH  026%=      5-min Rain = 0
KTA1 121825Z 32003G8KT 32/10 A3003 RMK A01 T03220103  RH  026%=      5-min Rain = 0
KTA1 121826Z 33007KT 32/10 A3003 RMK A01 T03230103  RH  026%=      5-min Rain = 0
KTA1 121827Z 34006KT 32/10 A3003 RMK A01 T03210102  RH  026%=      5-min Rain = 0
KTA1 121828Z 35008KT 32/10 A3003 RMK A01 T03200103  RH  026%=      5-min Rain = 0
KTA1 121829Z 35006KT 32/10 A3003 RMK A01 T03210101  RH  026%=      5-min Rain = 0
KTA1 121830Z 35006KT 32/10 A3003 RMK A01 T03210101  RH  026%=      5-min Rain = 0
KTA1 121831Z 36006KT 32/10 A3003 RMK A01 T03220103  RH  026%=      5-min Rain = 0
KTA1 121832Z 01004KT 32/10 A3003 RMK A01 T03230101  RH  025%=      5-min Rain = 0
KTA1 121833Z 05002KT 32/10 A3003 RMK A01 T03220101  RH  026%=      5-min Rain = 0
KTA1 121834Z 03002KT 32/10 A3003 RMK A01 T03200100  RH  026%=      5-min Rain = 0
KTA1 121835Z 02005KT 32/10 A3003 RMK A01 T03200101  RH  026%=      5-min Rain = 0
KTA1 121836Z 01003KT 32/10 A3003 RMK A01 T03190100  RH  026%=      5-min Rain = 0
KTA1 121837Z 02002KT 32/10 A3003 RMK A01 T03180101  RH  026%=      5-min Rain = 0
KTA1 121838Z 32002KT 32/10 A3003 RMK A01 T03190103  RH  027%=      5-min Rain = 0
KTA1 121839Z 29004KT 32/11 A3002 RMK A01 T03220107  RH  027%=      5-min Rain = 0
KTA1 121840Z 27006KT 33/10 A3002 RMK A01 T03250103  RH  026%=      5-min Rain = 0
KTA1 121841Z 25005KT 32/10 A3002 RMK A01 T03220101  RH  026%=      5-min Rain = 0
KTA1 121842Z 24004KT 32/10 A3002 RMK A01 T03180099  RH  026%=      5-min Rain = 0
KTA1 121843Z 24003KT 32/10 A3002 RMK A01 T03160100  RH  026%=      5-min Rain = 0
KTA1 121844Z 24005KT 32/10 A3002 RMK A01 T03180100  RH  026%=      5-min Rain = 0
KTA1 121845Z 24003KT 32/10 A3002 RMK A01 T03180100  RH  026%=      5-min Rain = 0
KTA1 121846Z 24004KT 32/10 A3002 RMK A01 T03190101  RH  026%=      5-min Rain = 0
KTA1 121847Z 26007KT 32/10 A3002 RMK A01 T03200102  RH  026%=      5-min Rain = 0
KTA1 121848Z 31003KT 32/10 A3002 RMK A01 T03210102  RH  026%=      5-min Rain = 0
KTA1 121849Z 02003KT 32/10 A3002 RMK A01 T03220102  RH  026%=      5-min Rain = 0
KTA1 121850Z 01003KT 32/10 A3002 RMK A01 T03230102  RH  026%=      5-min Rain = 0
KTA1 121851Z 31003KT 33/10 A3002 RMK A01 T03250103  RH  026%=      5-min Rain = 0
KTA1 121852Z 00006KT 33/10 A3002 RMK A01 T03260102  RH  025%=      5-min Rain = 0
KTA1 121853Z 36004KT 32/10 A3002 RMK A01 T03240102  RH  026%=      5-min Rain = 0
KTA1 121854Z 33004KT 32/10 A3002 RMK A01 T03240103  RH  026%=      5-min Rain = 0
KTA1 121855Z 32005KT 33/10 A3001 RMK A01 T03250103  RH  026%=      5-min Rain = 0
KTA1 121856Z 35007KT 33/10 A3001 RMK A01 T03260104  RH  026%=      5-min Rain = 0
KTA1 121857Z 01010KT 33/10 A3001 RMK A01 T03270102  RH  025%=      5-min Rain = 0
KTA1 121858Z 01007KT 33/10 A3001 RMK A01 T03250102  RH  025%=      5-min Rain = 0
KTA1 121859Z 01005KT 33/10 A3001 RMK A01 T03250101  RH  025%=      5-min Rain = 0
KTA1 121900Z 06004KT 32/10 A3001 RMK A01 T03240101  RH  025%=      5-min Rain = 0
KTA1 121901Z 04003KT 33/10 A3001 RMK A01 T03260104  RH  026%=      5-min Rain = 0
KTA1 121902Z 36001KT 33/10 A3001 RMK A01 T03290104  RH  025%=      5-min Rain = 0
KTA1 121903Z 06003KT 33/10 A3001 RMK A01 T03310104  RH  025%=      5-min Rain = 0
KTA1 121904Z 02006KT 33/11 A3001 RMK A01 T03310105  RH  025%=      5-min Rain = 0
KTA1 121905Z 03006KT 33/10 A3001 RMK A01 T03320103  RH  025%=      5-min Rain = 0
KTA1 121906Z 02004KT 33/10 A3001 RMK A01 T03300102  RH  025%=      5-min Rain = 0
KTA1 121907Z 02003KT 33/10 A3001 RMK A01 T03280102  RH  025%=      5-min Rain = 0
KTA1 121908Z 34002KT 33/10 A3001 RMK A01 T03270102  RH  025%=      5-min Rain = 0
KTA1 121909Z 34003KT 33/10 A3001 RMK A01 T03270102  RH  025%=      5-min Rain = 0
KTA1 121910Z 04004KT 33/10 A3001 RMK A01 T03270103  RH  025%=      5-min Rain = 0
KTA1 121911Z 04005KT 33/10 A3001 RMK A01 T03280103  RH  025%=      5-min Rain = 0
KTA1 121912Z 06006KT 33/10 A30 RMK A01 T03280102  RH  025%=      5-min Rain = 0
KTA1 121913Z 07006KT 33/10 A30 RMK A01 T03260100  RH  025%=      5-min Rain = 0
KTA1 121914Z 06004KT 32/10 A30 RMK A01 T03220100  RH  026%=      5-min Rain = 0
KTA1 121915Z 08001KT 32/10 A30 RMK A01 T03220102  RH  026%=      5-min Rain = 0
KTA1 121916Z 13003KT 32/10 A30 RMK A01 T03220102  RH  026%=      5-min Rain = 0
KTA1 121917Z 16002KT 32/10 A30 RMK A01 T03230101  RH  026%=      5-min Rain = 0
KTA1 121918Z 17002KT 32/10 A30 RMK A01 T03240101  RH  025%=      5-min Rain = 0
KTA1 121919Z 18000KT 33/10 A30 RMK A01 T03250102  RH  025%=      5-min Rain = 0
KTA1 121920Z 02001KT 33/10 A30 RMK A01 T03270102  RH  025%=      5-min Rain = 0
KTA1 121921Z 34006KT 33/10 A30 RMK A01 T03290103  RH  025%=      5-min Rain = 0
KTA1 121922Z 33005KT 33/10 A30 RMK A01 T03300103  RH  025%=      5-min Rain = 0
KTA1 121923Z 31004KT 33/10 A30 RMK A01 T03310102  RH  025%=      5-min Rain = 0
KTA1 121924Z 35003KT 33/10 A30 RMK A01 T03310100  RH  024%=      5-min Rain = 0
KTA1 121925Z 34003KT 33/10 A30 RMK A01 T03300100  RH  024%=      5-min Rain = 0
KTA1 121926Z 27000KT 33/10 A30 RMK A01 T03290098  RH  024%=      5-min Rain = 0
KTA1 121927Z 22001KT 33/10 A30 RMK A01 T03290097  RH  024%=      5-min Rain = 0
KTA1 121928Z 20005KT 33/10 A2999 RMK A01 T03270098  RH  024%=      5-min Rain = 0
KTA1 121929Z 21004KT 33/10 A2999 RMK A01 T03250099  RH  025%=      5-min Rain = 0
KTA1 121930Z 24004KT 33/10 A2999 RMK A01 T03250099  RH  025%=      5-min Rain = 0
KTA1 121931Z 23004KT 33/10 A2999 RMK A01 T03260100  RH  025%=      5-min Rain = 0
KTA1 121932Z 25002KT 33/10 A2999 RMK A01 T03290100  RH  025%=      5-min Rain = 0
KTA1 121933Z 26001KT 33/10 A2999 RMK A01 T03310101  RH  024%=      5-min Rain = 0
KTA1 121934Z 03004KT 33/10 A2999 RMK A01 T03340102  RH  024%=      5-min Rain = 0
KTA1 121935Z 03005KT 34/10 A2999 RMK A01 T03370098  RH  023%=      5-min Rain = 0
KTA1 121936Z 04005KT 34/10 A2999 RMK A01 T03350098  RH  023%=      5-min Rain = 0
KTA1 121937Z 03005KT 34/10 A2999 RMK A01 T03350098  RH  023%=      5-min Rain = 0
KTA1 121938Z 03004KT 33/10 A2999 RMK A01 T03340099  RH  024%=      5-min Rain = 0
KTA1 121939Z 05005KT 33/10 A2999 RMK A01 T03340100  RH  024%=      5-min Rain = 0
KTA1 121940Z 08007KT 33/10 A2999 RMK A01 T03340097  RH  023%=      5-min Rain = 0
KTA1 121941Z 06006KT 33/10 A2998 RMK A01 T03320097  RH  024%=      5-min Rain = 0
KTA1 121942Z 06008KT 33/10 A2998 RMK A01 T03320095  RH  023%=      5-min Rain = 0
KTA1 121943Z 03007KT 33/10 A2998 RMK A01 T03330096  RH  023%=      5-min Rain = 0
KTA1 121944Z 02006KT 34/10 A2998 RMK A01 T03360098  RH  023%=      5-min Rain = 0
KTA1 121945Z 03005KT 34/10 A2998 RMK A01 T03380098  RH  023%=      5-min Rain = 0
KTA1 121946Z 01004KT 34/10 A2998 RMK A01 T03400100  RH  023%=      5-min Rain = 0
KTA1 121947Z 01004KT 34/10 A2998 RMK A01 T03400096  RH  022%=      5-min Rain = 0
KTA1 121948Z 35003KT 34/10 A2998 RMK A01 T03380096  RH  023%=      5-min Rain = 0
KTA1 121949Z 35007KT 34/10 A2998 RMK A01 T03370095  RH  023%=      5-min Rain = 0
KTA1 121950Z 35004KT 34/09 A2998 RMK A01 T03370093  RH  022%=      5-min Rain = 0
KTA1 121951Z 02005KT 34/09 A2998 RMK A01 T03360094  RH  023%=      5-min Rain = 0
KTA1 121952Z 03007KT 34/09 A2998 RMK A01 T03360094  RH  023%=      5-min Rain = 0
KTA1 121953Z 03008KT 34/09 A2998 RMK A01 T03360093  RH  023%=      5-min Rain = 0
KTA1 121954Z 05005KT 33/09 A2998 RMK A01 T03340092  RH  023%=      5-min Rain = 0
KTA1 121955Z 06002KT 33/09 A2998 RMK A01 T03310090  RH  023%=      5-min Rain = 0
KTA1 121956Z 05003KT 33/09 A2997 RMK A01 T03330091  RH  023%=      5-min Rain = 0
KTA1 121957Z 04006KT 34/09 A2997 RMK A01 T03350093  RH  023%=      5-min Rain = 0
KTA1 121958Z 03003KT 34/09 A2997 RMK A01 T03370092  RH  022%=      5-min Rain = 0
KTA1 121959Z 02002KT 34/09 A2997 RMK A01 T03370093  RH  022%=      5-min Rain = 0
KTA1 122000Z 32002KT 34/09 A2997 RMK A01 T03370092  RH  022%=      5-min Rain = 0
KTA1 122001Z 33006KT 34/10 A2997 RMK A01 T03390096  RH  023%=      5-min Rain = 0
KTA1 122002Z 32006KT 34/10 A2997 RMK A01 T03400095  RH  022%=      5-min Rain = 0
KTA1 122003Z 29006KT 34/10 A2997 RMK A01 T03410095  RH  022%=      5-min Rain = 0
KTA1 122004Z 29005KT 34/09 A2997 RMK A01 T03390093  RH  022%=      5-min Rain = 0
KTA1 122005Z 32008KT 34/10 A2997 RMK A01 T03380096  RH  023%=      5-min Rain = 0
KTA1 122006Z 00005KT 34/10 A2997 RMK A01 T03410096  RH  022%=      5-min Rain = 0
KTA1 122007Z 01004KT 34/10 A2997 RMK A01 T03420095  RH  022%=      5-min Rain = 0
KTA1 122008Z 02004KT 34/10 A2997 RMK A01 T03440097  RH  022%=      5-min Rain = 0
KTA1 122009Z 35008KT 35/10 A2997 RMK A01 T03450096  RH  022%=      5-min Rain = 0
KTA1 122010Z 35004KT 34/10 A2997 RMK A01 T03430096  RH  022%=      5-min Rain = 0
KTA1 122011Z 33002KT 34/10 A2997 RMK A01 T03410097  RH  022%=      5-min Rain = 0
KTA1 122012Z 33004KT 34/10 A2997 RMK A01 T03410096  RH  022%=      5-min Rain = 0
KTA1 122013Z 32003KT 34/09 A2997 RMK A01 T03410094  RH  022%=      5-min Rain = 0
KTA1 122014Z 28004KT 34/09 A2996 RMK A01 T03390092  RH  022%=      5-min Rain = 0
KTA1 122015Z 31003KT 34/09 A2996 RMK A01 T03370093  RH  022%=      5-min Rain = 0
KTA1 122016Z 03006KT 34/10 A2996 RMK A01 T03370096  RH  023%=      5-min Rain = 0
KTA1 122017Z 03007KT 34/10 A2996 RMK A01 T03410098  RH  023%=      5-min Rain = 0
KTA1 122018Z 04007KT 34/10 A2996 RMK A01 T03430098  RH  022%=      5-min Rain = 0
KTA1 122019Z 04008KT 34/10 A2996 RMK A01 T03430098  RH  022%=      5-min Rain = 0
KTA1 122020Z 03009KT 34/10 A2996 RMK A01 T03420097  RH  022%=      5-min Rain = 0
KTA1 122021Z 02008KT 34/10 A2996 RMK A01 T03420097  RH  022%=      5-min Rain = 0
KTA1 122022Z 02009KT 34/10 A2996 RMK A01 T03410096  RH  022%=      5-min Rain = 0
KTA1 122023Z 02008KT 34/09 A2996 RMK A01 T03410094  RH  022%=      5-min Rain = 0
KTA1 122024Z 01009KT 34/10 A2996 RMK A01 T03410096  RH  022%=      5-min Rain = 0
KTA1 122025Z 02008KT 34/09 A2996 RMK A01 T03410094  RH  022%=      5-min Rain = 0
KTA1 122026Z 03006KT 34/10 A2996 RMK A01 T03400096  RH  022%=      5-min Rain = 0
KTA1 122027Z 05006KT 34/10 A2996 RMK A01 T03410097  RH  022%=      5-min Rain = 0
KTA1 122028Z 07005KT 34/10 A2996 RMK A01 T03400095  RH  022%=      5-min Rain = 0
KTA1 122029Z 06004KT 34/10 A2996 RMK A01 T03390095  RH  022%=      5-min Rain = 0
KTA1 122030Z 08003KT 34/09 A2996 RMK A01 T03380094  RH  022%=      5-min Rain = 0
KTA1 122031Z 10005KT 34/10 A2996 RMK A01 T03380095  RH  022%=      5-min Rain = 0
KTA1 122032Z 05005KT 34/10 A2996 RMK A01 T03400096  RH  023%=      5-min Rain = 0
KTA1 122033Z 04002KT 34/09 A2995 RMK A01 T03400093  RH  022%=      5-min Rain = 0
KTA1 122034Z 09003KT 34/09 A2995 RMK A01 T03380094  RH  022%=      5-min Rain = 0
KTA1 122035Z 08001KT 34/10 A2995 RMK A01 T03370095  RH  023%=      5-min Rain = 0
KTA1 122036Z 06000KT 34/10 A2995 RMK A01 T03390095  RH  022%=      5-min Rain = 0
KTA1 122037Z 30001KT 34/10 A2995 RMK A01 T03400095  RH  022%=      5-min Rain = 0
KTA1 122038Z 22001KT 34/10 A2995 RMK A01 T03400096  RH  022%=      5-min Rain = 0
KTA1 122039Z 14003KT 34/10 A2995 RMK A01 T03420098  RH  022%=      5-min Rain = 0
KTA1 122040Z 11003KT 34/10 A2995 RMK A01 T03430097  RH  022%=      5-min Rain = 0
KTA1 122041Z 03001KT 34/10 A2995 RMK A01 T03440098  RH  022%=      5-min Rain = 0
KTA1 122042Z 02003KT 35/10 A2995 RMK A01 T03450097  RH  022%=      5-min Rain = 0
KTA1 122043Z 03003KT 35/10 A2995 RMK A01 T03450095  RH  022%=      5-min Rain = 0
KTA1 122044Z 04006KT 34/10 A2995 RMK A01 T03440096  RH  022%=      5-min Rain = 0
KTA1 122045Z 36007KT 35/10 A2995 RMK A01 T03460096  RH  022%=      5-min Rain = 0
KTA1 122046Z 34006KT 35/10 A2995 RMK A01 T03460095  RH  021%=      5-min Rain = 0
KTA1 122047Z 32003KT 35/10 A2995 RMK A01 T03460095  RH  022%=      5-min Rain = 0
KTA1 122048Z 35006G12KT 35/10 A2994 RMK A01 T03480097  RH  022%=      5-min Rain = 0
KTA1 122049Z 02006KT 35/10 A2995 RMK A01 T03500098  RH  021%=      5-min Rain = 0
KTA1 122050Z 02004KT 35/10 A2995 RMK A01 T03500098  RH  021%=      5-min Rain = 0
KTA1 122051Z 03003KT 35/10 A2995 RMK A01 T03480097  RH  022%=      5-min Rain = 0
KTA1 122052Z 02003KT 35/10 A2995 RMK A01 T03470097  RH  022%=      5-min Rain = 0
KTA1 122053Z 33001KT 35/10 A2994 RMK A01 T03460095  RH  021%=      5-min Rain = 0
KTA1 122054Z 32001KT 35/09 A2994 RMK A01 T03480093  RH  021%=      5-min Rain = 0
KTA1 122055Z 34004KT 35/10 A2994 RMK A01 T03490096  RH  021%=      5-min Rain = 0
KTA1 122056Z 33007G12KT 35/10 A2994 RMK A01 T03500095  RH  021%=      5-min Rain = 0
KTA1 122057Z 34011KT 35/09 A2994 RMK A01 T03520093  RH  021%=      5-min Rain = 0
KTA1 122058Z 34008KT 35/09 A2994 RMK A01 T03510090  RH  020%=      5-min Rain = 0
KTA1 122059Z 01006KT 35/09 A2994 RMK A01 T03470089  RH  021%=      5-min Rain = 0
KTA1 122100Z 33010KT 35/09 A2994 RMK A01 T03460093  RH  021%=      5-min Rain = 0
KTA1 122101Z 33008KT 35/09 A2994 RMK A01 T03460093  RH  021%=      5-min Rain = 0
KTA1 122102Z 33004KT 35/09 A2994 RMK A01 T03460092  RH  021%=      5-min Rain = 0
KTA1 122103Z 32003KT 35/09 A2994 RMK A01 T03450092  RH  021%=      5-min Rain = 0
KTA1 122104Z 33005KT 35/09 A2994 RMK A01 T03450092  RH  021%=      5-min Rain = 0
KTA1 122105Z 34006KT 35/09 A2994 RMK A01 T03460094  RH  021%=      5-min Rain = 0
KTA1 122106Z 35004KT 35/09 A2994 RMK A01 T03470090  RH  021%=      5-min Rain = 0
KTA1 122107Z 35003KT 35/09 A2994 RMK A01 T03460093  RH  021%=      5-min Rain = 0
KTA1 122108Z 34005KT 35/09 A2994 RMK A01 T03460093  RH  021%=      5-min Rain = 0
KTA1 122109Z 33003KT 35/09 A2994 RMK A01 T03450091  RH  021%=      5-min Rain = 0
KTA1 122110Z 32001KT 34/09 A2994 RMK A01 T03440093  RH  022%=      5-min Rain = 0
KTA1 122111Z 33002KT 35/09 A2994 RMK A01 T03460093  RH  021%=      5-min Rain = 0
KTA1 122112Z 32004KT 35/09 A2994 RMK A01 T03470094  RH  021%=      5-min Rain = 0
KTA1 122113Z 32005KT 35/09 A2994 RMK A01 T03480093  RH  021%=      5-min Rain = 0
KTA1 122114Z 30004KT 35/09 A2994 RMK A01 T03470093  RH  021%=      5-min Rain = 0
KTA1 122115Z 33003KT 35/09 A2994 RMK A01 T03480092  RH  021%=      5-min Rain = 0
KTA1 122116Z 00004KT 35/09 A2994 RMK A01 T03470094  RH  021%=      5-min Rain = 0
KTA1 122117Z 34002KT 35/10 A2994 RMK A01 T03460095  RH  022%=      5-min Rain = 0
KTA1 122118Z 09002KT 35/09 A2994 RMK A01 T03450092  RH  021%=      5-min Rain = 0
KTA1 122119Z 05003KT 35/09 A2994 RMK A01 T03460092  RH  021%=      5-min Rain = 0
KTA1 122120Z 05004KT 35/09 A2993 RMK A01 T03470093  RH  021%=      5-min Rain = 0
KTA1 122121Z 06004KT 35/09 A2993 RMK A01 T03460094  RH  022%=      5-min Rain = 0
KTA1 122122Z 09005KT 35/10 A2993 RMK A01 T03460097  RH  022%=      5-min Rain = 0
KTA1 122123Z 06004KT 35/10 A2993 RMK A01 T03460097  RH  022%=      5-min Rain = 0
KTA1 122124Z 00005KT 35/10 A2993 RMK A01 T03460098  RH  022%=      5-min Rain = 0
KTA1 122125Z 02007KT 35/10 A2993 RMK A01 T03470096  RH  022%=      5-min Rain = 0
KTA1 122126Z 01007KT 35/10 A2993 RMK A01 T03460096  RH  022%=      5-min Rain = 0
KTA1 122127Z 34006KT 35/10 A2993 RMK A01 T03460098  RH  022%=      5-min Rain = 0
KTA1 122128Z 34005KT 35/10 A2993 RMK A01 T03460099  RH  022%=      5-min Rain = 0
KTA1 122129Z 31004KT 35/10 A2993 RMK A01 T03460097  RH  022%=      5-min Rain = 0
KTA1 122130Z 31004KT 34/10 A2993 RMK A01 T03430096  RH  022%=      5-min Rain = 0
KTA1 122131Z 32003KT 34/10 A2993 RMK A01 T03410095  RH  022%=      5-min Rain = 0
KTA1 122132Z 33001KT 34/09 A2993 RMK A01 T03390094  RH  022%=      5-min Rain = 0
KTA1 122133Z 21000KT 34/09 A2993 RMK A01 T03390094  RH  022%=      5-min Rain = 0
KTA1 122134Z 15002KT 34/09 A2993 RMK A01 T03420094  RH  022%=      5-min Rain = 0
KTA1 122135Z 18003KT 34/10 A2993 RMK A01 T03430095  RH  022%=      5-min Rain = 0
KTA1 122136Z 20003KT 34/10 A2993 RMK A01 T03440095  RH  022%=      5-min Rain = 0
KTA1 122137Z 22002KT 34/09 A2993 RMK A01 T03440094  RH  022%=      5-min Rain = 0
KTA1 122138Z 16001KT 34/10 A2993 RMK A01 T03440096  RH  022%=      5-min Rain = 0
KTA1 122139Z 14003KT 35/10 A2993 RMK A01 T03460095  RH  022%=      5-min Rain = 0
KTA1 122140Z 15003KT 35/10 A2993 RMK A01 T03470095  RH  021%=      5-min Rain = 0
KTA1 122141Z 13004KT 35/10 A2993 RMK A01 T03470095  RH  021%=      5-min Rain = 0
KTA1 122142Z 10003KT 35/09 A2993 RMK A01 T03470094  RH  021%=      5-min Rain = 0
KTA1 122143Z 08004KT 34/09 A2992 RMK A01 T03420094  RH  022%=      5-min Rain = 0
KTA1 122144Z 10004KT 34/09 A2992 RMK A01 T03410094  RH  022%=      5-min Rain = 0
KTA1 122145Z 04006KT 34/10 A2992 RMK A01 T03420098  RH  022%=      5-min Rain = 0
KTA1 122146Z 02010KT 35/10 A2992 RMK A01 T03460100  RH  022%=      5-min Rain = 0
KTA1 122147Z 02008KT 35/10 A2992 RMK A01 T03470097  RH  022%=      5-min Rain = 0
KTA1 122148Z 04005KT 35/10 A2992 RMK A01 T03450099  RH  022%=      5-min Rain = 0
KTA1 122149Z 04005KT 35/10 A2992 RMK A01 T03480099  RH  022%=      5-min Rain = 0
KTA1 122150Z 03007KT 35/10 A2992 RMK A01 T03470097  RH  022%=      5-min Rain = 0
KTA1 122151Z 02008KT 35/10 A2992 RMK A01 T03450096  RH  022%=      5-min Rain = 0
KTA1 122152Z 05007KT 34/10 A2992 RMK A01 T03440096  RH  022%=      5-min Rain = 0
KTA1 122153Z 05006KT 34/10 A2992 RMK A01 T03430095  RH  022%=      5-min Rain = 0
KTA1 122154Z 04006KT 34/09 A2992 RMK A01 T03430094  RH  022%=      5-min Rain = 0
KTA1 122155Z 05006KT 34/09 A2992 RMK A01 T03430094  RH  022%=      5-min Rain = 0
KTA1 122156Z 03007KT 34/10 A2992 RMK A01 T03430095  RH  022%=      5-min Rain = 0
KTA1 122157Z 02006KT 34/09 A2992 RMK A01 T03440094  RH  022%=      5-min Rain = 0
KTA1 122158Z 04005KT 34/10 A2992 RMK A01 T03420095  RH  022%=      5-min Rain = 0
KTA1 122159Z 05005KT 34/10 A2992 RMK A01 T03420096  RH  022%=      5-min Rain = 0
KTA1 122200Z 05004KT 34/10 A2992 RMK A01 T03430096  RH  022%=      5-min Rain = 0
KTA1 122201Z 06006KT 34/10 A2992 RMK A01 T03430096  RH  022%=      5-min Rain = 0
KTA1 122202Z 07005KT 34/10 A2992 RMK A01 T03420095  RH  022%=      5-min Rain = 0
KTA1 122203Z 06005KT 34/10 A2992 RMK A01 T03410096  RH  022%=      5-min Rain = 0
KTA1 122204Z 05006KT 34/10 A2992 RMK A01 T03400096  RH  022%=      5-min Rain = 0
KTA1 122205Z 06005KT 34/10 A2992 RMK A01 T03410098  RH  023%=      5-min Rain = 0
KTA1 122206Z 02005KT 34/10 A2992 RMK A01 T03430098  RH  022%=      5-min Rain = 0
KTA1 122207Z 34005KT 34/10 A2992 RMK A01 T03430098  RH  022%=      5-min Rain = 0
KTA1 122208Z 02004KT 34/10 A2992 RMK A01 T03430097  RH  022%=      5-min Rain = 0
KTA1 122209Z 02005KT 34/10 A2992 RMK A01 T03430098  RH  022%=      5-min Rain = 0
KTA1 122210Z 35007KT 35/10 A2992 RMK A01 T03450097  RH  022%=      5-min Rain = 0
KTA1 122211Z 03009KT 35/10 A2992 RMK A01 T03460099  RH  022%=      5-min Rain = 0
KTA1 122212Z 04006KT 35/10 A2992 RMK A01 T03480100  RH  022%=      5-min Rain = 0
KTA1 122213Z 06006KT 35/10 A2992 RMK A01 T03480100  RH  022%=      5-min Rain = 0
KTA1 122214Z 05005KT 35/10 A2992 RMK A01 T03490100  RH  022%=      5-min Rain = 0
KTA1 122215Z 07007KT 35/10 A2992 RMK A01 T03490100  RH  022%=      5-min Rain = 0
KTA1 122216Z 06006KT 35/10 A2992 RMK A01 T03490099  RH  022%=      5-min Rain = 0
KTA1 122217Z 06007KT 35/10 A2992 RMK A01 T03480100  RH  022%=      5-min Rain = 0
KTA1 122218Z 05009KT 35/10 A2992 RMK A01 T03480099  RH  022%=      5-min Rain = 0
KTA1 122219Z 04009KT 35/10 A2992 RMK A01 T03460099  RH  022%=      5-min Rain = 0
KTA1 122220Z 04008KT 35/10 A2992 RMK A01 T03460100  RH  022%=      5-min Rain = 0
KTA1 122221Z 04007KT 35/10 A2992 RMK A01 T03450099  RH  022%=      5-min Rain = 0
KTA1 122222Z 04005KT 34/10 A2992 RMK A01 T03420099  RH  023%=      5-min Rain = 0
KTA1 122223Z 07003KT 34/10 A2992 RMK A01 T03410099  RH  023%=      5-min Rain = 0
KTA1 122224Z 07003KT 34/10 A2992 RMK A01 T03410099  RH  023%=      5-min Rain = 0
KTA1 122225Z 08003KT 34/10 A2992 RMK A01 T03410099  RH  023%=      5-min Rain = 0
KTA1 122226Z 10003KT 34/10 A2992 RMK A01 T03400099  RH  023%=      5-min Rain = 0
KTA1 122227Z 11002KT 34/10 A2992 RMK A01 T03420100  RH  023%=      5-min Rain = 0
KTA1 122228Z 12002KT 34/10 A2992 RMK A01 T03420099  RH  023%=      5-min Rain = 0
KTA1 122229Z 05002KT 34/10 A2992 RMK A01 T03440101  RH  023%=      5-min Rain = 0
KTA1 122230Z 07002KT 34/10 A2992 RMK A01 T03440099  RH  022%=      5-min Rain = 0
KTA1 122231Z 07003KT 34/10 A2992 RMK A01 T03440098  RH  022%=      5-min Rain = 0
KTA1 122232Z 08003KT 34/10 A2992 RMK A01 T03420097  RH  022%=      5-min Rain = 0
KTA1 122233Z 07004KT 34/10 A2992 RMK A01 T03410099  RH  023%=      5-min Rain = 0
KTA1 122234Z 04004KT 34/10 A2992 RMK A01 T03420101  RH  023%=      5-min Rain = 0
KTA1 122235Z 06005KT 34/10 A2991 RMK A01 T03430101  RH  023%=      5-min Rain = 0
KTA1 122236Z 09005KT 34/10 A2991 RMK A01 T03430101  RH  023%=      5-min Rain = 0
KTA1 122237Z 10003KT 34/10 A2991 RMK A01 T03440100  RH  022%=      5-min Rain = 0
KTA1 122238Z 12005KT 34/10 A2991 RMK A01 T03440101  RH  023%=      5-min Rain = 0
KTA1 122239Z 12007KT 34/10 A2991 RMK A01 T03440099  RH  022%=      5-min Rain = 0
KTA1 122240Z 14005KT 35/10 A2991 RMK A01 T03450098  RH  022%=      5-min Rain = 0
KTA1 122241Z 15004KT 35/10 A2991 RMK A01 T03450097  RH  022%=      5-min Rain = 0
KTA1 122242Z 15005KT 35/10 A2991 RMK A01 T03450097  RH  022%=      5-min Rain = 0
KTA1 122243Z 15005KT 34/10 A2991 RMK A01 T03440098  RH  022%=      5-min Rain = 0
KTA1 122244Z 16003KT 34/10 A2991 RMK A01 T03430097  RH  022%=      5-min Rain = 0
KTA1 122245Z 15002KT 34/10 A2991 RMK A01 T03420099  RH  023%=      5-min Rain = 0
KTA1 122246Z 14004KT 34/10 A2991 RMK A01 T03440098  RH  022%=      5-min Rain = 0
KTA1 122247Z 12003KT 35/10 A2991 RMK A01 T03450098  RH  022%=      5-min Rain = 0
KTA1 122248Z 13004KT 35/10 A2991 RMK A01 T03450099  RH  022%=      5-min Rain = 0
KTA1 122249Z 13005KT 35/10 A2991 RMK A01 T03460098  RH  022%=      5-min Rain = 0
KTA1 122250Z 10005KT 35/10 A2991 RMK A01 T03450099  RH  022%=      5-min Rain = 0
KTA1 122251Z 09007KT 35/10 A2991 RMK A01 T03450102  RH  023%=      5-min Rain = 0
KTA1 122252Z 09006KT 35/10 A2991 RMK A01 T03450101  RH  023%=      5-min Rain = 0
KTA1 122253Z 09005KT 34/10 A2991 RMK A01 T03440100  RH  022%=      5-min Rain = 0
KTA1 122254Z 07005KT 34/10 A2991 RMK A01 T03430102  RH  023%=      5-min Rain = 0
KTA1 122255Z 08005KT 34/10 A2991 RMK A01 T03420100  RH  023%=      5-min Rain = 0
KTA1 122256Z 10005KT 34/10 A2991 RMK A01 T03410102  RH  023%=      5-min Rain = 0
KTA1 122257Z 12006KT 34/10 A2991 RMK A01 T03410102  RH  023%=      5-min Rain = 0
KTA1 122258Z 12005KT 34/10 A2991 RMK A01 T03410100  RH  023%=      5-min Rain = 0
KTA1 122259Z 09005KT 34/10 A2991 RMK A01 T03420101  RH  023%=      5-min Rain = 0
KTA1 122300Z 07002KT 34/10 A2991 RMK A01 T03430099  RH  023%=      5-min Rain = 0
KTA1 122301Z 10003KT 34/10 A2991 RMK A01 T03430099  RH  023%=      5-min Rain = 0
KTA1 122302Z 11006KT 34/10 A2991 RMK A01 T03430100  RH  023%=      5-min Rain = 0
KTA1 122303Z 11006KT 34/10 A2991 RMK A01 T03420101  RH  023%=      5-min Rain = 0
KTA1 122304Z 13005KT 34/10 A2991 RMK A01 T03420101  RH  023%=      5-min Rain = 0
KTA1 122305Z 14004KT 34/10 A2991 RMK A01 T03420100  RH  023%=      5-min Rain = 0
KTA1 122306Z 13005KT 34/10 A2991 RMK A01 T03420101  RH  023%=      5-min Rain = 0
KTA1 122307Z 13006KT 34/10 A2991 RMK A01 T03420101  RH  023%=      5-min Rain = 0
KTA1 122308Z 15003KT 34/10 A2991 RMK A01 T03420101  RH  023%=      5-min Rain = 0
KTA1 122309Z 20002KT 34/10 A2991 RMK A01 T03410100  RH  023%=      5-min Rain = 0
KTA1 122310Z 27004KT 34/10 A299 RMK A01 T03410100  RH  023%=      5-min Rain = 0
KTA1 122311Z 36005KT 34/10 A2991 RMK A01 T03410101  RH  023%=      5-min Rain = 0
KTA1 122312Z 34003KT 34/10 A2991 RMK A01 T03400102  RH  023%=      5-min Rain = 0
KTA1 122313Z 34002KT 34/10 A2991 RMK A01 T03400101  RH  023%=      5-min Rain = 0
KTA1 122314Z 03005KT 34/10 A2991 RMK A01 T03410102  RH  023%=      5-min Rain = 0
KTA1 122315Z 05007KT 34/10 A2991 RMK A01 T03420103  RH  023%=      5-min Rain = 0
KTA1 122316Z 05007KT 34/10 A2991 RMK A01 T03410102  RH  023%=      5-min Rain = 0
KTA1 122317Z 05007KT 34/10 A2991 RMK A01 T03420102  RH  023%=      5-min Rain = 0
KTA1 122318Z 06006KT 34/10 A2991 RMK A01 T03420101  RH  023%=      5-min Rain = 0
KTA1 122319Z 05006KT 34/10 A2991 RMK A01 T03410101  RH  023%=      5-min Rain = 0
KTA1 122320Z 04008KT 34/10 A2991 RMK A01 T03410100  RH  023%=      5-min Rain = 0
KTA1 122321Z 03007KT 34/10 A2991 RMK A01 T03400099  RH  023%=      5-min Rain = 0
KTA1 122322Z 02006KT 34/10 A2991 RMK A01 T03400099  RH  023%=      5-min Rain = 0
KTA1 122323Z 36004KT 34/10 A2991 RMK A01 T03400099  RH  023%=      5-min Rain = 0
KTA1 122324Z 35002KT 34/10 A2991 RMK A01 T03400100  RH  023%=      5-min Rain = 0
KTA1 122325Z 04004KT 34/10 A2991 RMK A01 T03410101  RH  023%=      5-min Rain = 0
KTA1 122326Z 05003KT 34/10 A2991 RMK A01 T03410100  RH  023%=      5-min Rain = 0
KTA1 122327Z 05004KT 34/10 A2991 RMK A01 T03400100  RH  023%=      5-min Rain = 0
KTA1 122328Z 06004KT 34/10 A299 RMK A01 T03400100  RH  023%=      5-min Rain = 0
KTA1 122329Z 07004KT 34/10 A299 RMK A01 T03400101  RH  023%=      5-min Rain = 0
KTA1 122330Z 05006KT 34/10 A299 RMK A01 T03400101  RH  023%=      5-min Rain = 0
KTA1 122331Z 04006KT 34/10 A299 RMK A01 T03410102  RH  023%=      5-min Rain = 0
KTA1 122332Z 05005KT 34/10 A299 RMK A01 T03400099  RH  023%=      5-min Rain = 0
KTA1 122333Z 04005KT 34/10 A299 RMK A01 T03400100  RH  023%=      5-min Rain = 0
KTA1 122334Z 05005KT 34/10 A299 RMK A01 T03390100  RH  023%=      5-min Rain = 0
KTA1 122335Z 04007KT 34/10 A299 RMK A01 T03400100  RH  023%=      5-min Rain = 0
KTA1 122336Z 03005KT 34/10 A299 RMK A01 T03400098  RH  023%=      5-min Rain = 0
KTA1 122337Z 03004KT 34/10 A299 RMK A01 T03380099  RH  023%=      5-min Rain = 0
KTA1 122338Z 04005KT 34/10 A299 RMK A01 T03370099  RH  023%=      5-min Rain = 0
KTA1 122339Z 05006KT 34/10 A299 RMK A01 T03370101  RH  024%=      5-min Rain = 0
KTA1 122340Z 04007KT 34/10 A299 RMK A01 T03360101  RH  024%=      5-min Rain = 0
KTA1 122341Z 04006KT 34/10 A299 RMK A01 T03350100  RH  024%=      5-min Rain = 0
KTA1 122342Z 05005KT 34/10 A299 RMK A01 T03350101  RH  024%=      5-min Rain = 0
KTA1 122343Z 05007KT 34/10 A299 RMK A01 T03350101  RH  024%=      5-min Rain = 0
KTA1 122344Z 05005KT 33/10 A299 RMK A01 T03340099  RH  024%=      5-min Rain = 0
KTA1 122345Z 04005KT 33/10 A299 RMK A01 T03340099  RH  024%=      5-min Rain = 0
KTA1 122346Z 05004KT 33/10 A299 RMK A01 T03340099  RH  024%=      5-min Rain = 0
KTA1 122347Z 04004KT 33/10 A299 RMK A01 T03340101  RH  024%=      5-min Rain = 0
KTA1 122348Z 05004KT 33/10 A299 RMK A01 T03340101  RH  024%=      5-min Rain = 0
KTA1 122349Z 07005KT 34/10 A299 RMK A01 T03350101  RH  024%=      5-min Rain = 0
KTA1 122350Z 08005KT 34/10 A299 RMK A01 T03350101  RH  024%=      5-min Rain = 0
KTA1 122351Z 09004KT 34/10 A299 RMK A01 T03350100  RH  024%=      5-min Rain = 0
KTA1 122352Z 09004KT 34/10 A299 RMK A01 T03350100  RH  024%=      5-min Rain = 0
KTA1 122353Z 09004KT 34/10 A299 RMK A01 T03350099  RH  024%=      5-min Rain = 0
KTA1 122354Z 09005KT 34/10 A299 RMK A01 T03350100  RH  024%=      5-min Rain = 0
KTA1 122355Z 10005KT 34/10 A299 RMK A01 T03350101  RH  024%=      5-min Rain = 0
KTA1 122356Z 08006KT 34/10 A299 RMK A01 T03350103  RH  024%=      5-min Rain = 0
KTA1 122357Z 08005KT 34/10 A299 RMK A01 T03350104  RH  024%=      5-min Rain = 0
KTA1 122358Z 09004KT 33/11 A299 RMK A01 T03330105  RH  025%=      5-min Rain = 0
KTA1 122359Z 09004KT 33/10 A299 RMK A01 T03330104  RH  025%=      5-min Rain = 0
KTA1 130000Z 09004KT 33/10 A299 RMK A01 T03330103  RH  025%=      5-min Rain = 0
KTA1 130001Z 09004KT 33/10 A299 RMK A01 T03330103  RH  025%=      5-min Rain = 0
KTA1 130002Z 08004KT 33/10 A299 RMK A01 T03330104  RH  025%=      5-min Rain = 0
KTA1 130003Z 08004KT 33/11 A299 RMK A01 T03320105  RH  025%=      5-min Rain = 0
KTA1 130004Z 08004KT 33/11 A299 RMK A01 T03310106  RH  025%=      5-min Rain = 0
KTA1 130005Z 09004KT 33/11 A299 RMK A01 T03300106  RH  025%=      5-min Rain = 0
KTA1 130006Z 08003KT 33/11 A299 RMK A01 T03290105  RH  025%=      5-min Rain = 0
KTA1 130007Z 08004KT 33/11 A299 RMK A01 T03280106  RH  026%=      5-min Rain = 0
KTA1 130008Z 08004KT 33/11 A299 RMK A01 T03280107  RH  026%=      5-min Rain = 0
KTA1 130009Z 07004KT 33/11 A2989 RMK A01 T03270107  RH  026%=      5-min Rain = 0
KTA1 130010Z 06004KT 33/11 A2989 RMK A01 T03260107  RH  026%=      5-min Rain = 0
KTA1 130011Z 09003KT 33/11 A2989 RMK A01 T03260105  RH  026%=      5-min Rain = 0
KTA1 130012Z 09004KT 33/11 A2989 RMK A01 T03260109  RH  026%=      5-min Rain = 0
KTA1 130013Z 08003KT 33/11 A2989 RMK A01 T03250109  RH  027%=      5-min Rain = 0
KTA1 130014Z 09004KT 33/11 A2989 RMK A01 T03250106  RH  026%=      5-min Rain = 0
KTA1 130015Z 09004KT 33/11 A2989 RMK A01 T03250106  RH  026%=      5-min Rain = 0
KTA1 130016Z 09004KT 33/11 A2989 RMK A01 T03250107  RH  026%=      5-min Rain = 0
KTA1 130017Z 09004KT 33/11 A2989 RMK A01 T03250110  RH  027%=      5-min Rain = 0
KTA1 130018Z 09004KT 32/11 A2989 RMK A01 T03240112  RH  027%=      5-min Rain = 0
KTA1 130019Z 09004KT 32/11 A2989 RMK A01 T03220112  RH  028%=      5-min Rain = 0
KTA1 130020Z 10004KT 32/11 A2989 RMK A01 T03210112  RH  028%=      5-min Rain = 0
KTA1 130021Z 10005KT 32/11 A2989 RMK A01 T03210112  RH  028%=      5-min Rain = 0
KTA1 130022Z 10005KT 32/11 A2989 RMK A01 T03200112  RH  028%=      5-min Rain = 0
KTA1 130023Z 10004KT 32/11 A2989 RMK A01 T03190112  RH  028%=      5-min Rain = 0
KTA1 130024Z 09004KT 32/11 A2989 RMK A01 T03180112  RH  028%=      5-min Rain = 0
KTA1 130025Z 09005KT 32/11 A2989 RMK A01 T03180110  RH  028%=      5-min Rain = 0
KTA1 130026Z 09005KT 32/11 A2989 RMK A01 T03180107  RH  027%=      5-min Rain = 0
KTA1 130027Z 09005KT 32/11 A2989 RMK A01 T03180107  RH  027%=      5-min Rain = 0
KTA1 130028Z 09004KT 32/11 A2989 RMK A01 T03180108  RH  028%=      5-min Rain = 0
KTA1 130029Z 09004KT 32/11 A2989 RMK A01 T03180109  RH  028%=      5-min Rain = 0
KTA1 130030Z 09004KT 32/11 A2989 RMK A01 T03180110  RH  028%=      5-min Rain = 0
KTA1 130031Z 09004KT 32/11 A2989 RMK A01 T03170110  RH  028%=      5-min Rain = 0
KTA1 130032Z 10004KT 32/11 A2989 RMK A01 T03170110  RH  028%=      5-min Rain = 0
KTA1 130033Z 09004KT 32/11 A2989 RMK A01 T03160110  RH  028%=      5-min Rain = 0
KTA1 130034Z 09003KT 32/11 A2989 RMK A01 T03150111  RH  029%=      5-min Rain = 0
KTA1 130035Z 10003KT 31/11 A2989 RMK A01 T03140111  RH  029%=      5-min Rain = 0
KTA1 130036Z 10004KT 31/11 A2989 RMK A01 T03130111  RH  029%=      5-min Rain = 0
KTA1 130037Z 11004KT 31/11 A2989 RMK A01 T03120113  RH  029%=      5-min Rain = 0
KTA1 130038Z 10005KT 31/11 A2989 RMK A01 T03110114  RH  030%=      5-min Rain = 0
KTA1 130039Z 10005KT 31/12 A2989 RMK A01 T03100115  RH  030%=      5-min Rain = 0
KTA1 130040Z 10004KT 31/12 A2989 RMK A01 T03080115  RH  030%=      5-min Rain = 0
KTA1 130041Z 10004KT 31/12 A2989 RMK A01 T03070116  RH  031%=      5-min Rain = 0
KTA1 130042Z 10004KT 31/12 A2989 RMK A01 T03060117  RH  031%=      5-min Rain = 0
KTA1 130043Z 10004KT 31/12 A2989 RMK A01 T03050116  RH  031%=      5-min Rain = 0
KTA1 130044Z 10004KT 31/12 A2989 RMK A01 T03050117  RH  031%=      5-min Rain = 0
KTA1 130045Z 10004KT 30/12 A2989 RMK A01 T03040116  RH  031%=      5-min Rain = 0
KTA1 130046Z 10004KT 30/12 A2989 RMK A01 T03040116  RH  031%=      5-min Rain = 0
KTA1 130047Z 10004KT 30/12 A2989 RMK A01 T03030116  RH  032%=      5-min Rain = 0
KTA1 130048Z 11004KT 30/12 A2989 RMK A01 T03030116  RH  032%=      5-min Rain = 0
KTA1 130049Z 11004KT 30/12 A2989 RMK A01 T03030117  RH  032%=      5-min Rain = 0
KTA1 130050Z 12004KT 30/12 A2989 RMK A01 T03030117  RH  032%=      5-min Rain = 0
KTA1 130051Z 11003KT 30/12 A2989 RMK A01 T03030118  RH  032%=      5-min Rain = 0
KTA1 130052Z 11003KT 30/12 A2989 RMK A01 T03020116  RH  032%=      5-min Rain = 0
KTA1 130053Z 11003KT 30/12 A2989 RMK A01 T03010117  RH  032%=      5-min Rain = 0
KTA1 130054Z 11003KT 30/12 A2989 RMK A01 T03000117  RH  032%=      5-min Rain = 0
KTA1 130055Z 11003KT 30/12 A2989 RMK A01 T02990118  RH  033%=      5-min Rain = 0
KTA1 130056Z 11004KT 30/12 A2989 RMK A01 T02980118  RH  033%=      5-min Rain = 0
KTA1 130057Z 10004KT 30/12 A2989 RMK A01 T02980119  RH  033%=      5-min Rain = 0
KTA1 130058Z 10005KT 30/12 A2989 RMK A01 T02970119  RH  034%=      5-min Rain = 0
KTA1 130059Z 10005KT 30/12 A2989 RMK A01 T02960120  RH  034%=      5-min Rain = 0
KTA1 130100Z 10004KT 30/12 A2989 RMK A01 T02950119  RH  034%=      5-min Rain = 0
KTA1 130101Z 10005KT 30/12 A2989 RMK A01 T02950119  RH  034%=      5-min Rain = 0
KTA1 130102Z 10005KT 29/12 A2989 RMK A01 T02940119  RH  034%=      5-min Rain = 0
KTA1 130103Z 10005KT 29/12 A2989 RMK A01 T02940118  RH  034%=      5-min Rain = 0
KTA1 130104Z 10005KT 29/12 A2989 RMK A01 T02940117  RH  034%=      5-min Rain = 0
KTA1 130105Z 10005KT 29/12 A2989 RMK A01 T02930117  RH  034%=      5-min Rain = 0
KTA1 130106Z 10005KT 29/12 A2989 RMK A01 T02930116  RH  034%=      5-min Rain = 0
KTA1 130107Z 10005KT 29/12 A2989 RMK A01 T02930116  RH  034%=      5-min Rain = 0
KTA1 130108Z 10005KT 29/12 A2989 RMK A01 T02920116  RH  034%=      5-min Rain = 0
KTA1 130109Z 10005KT 29/12 A2989 RMK A01 T02920116  RH  034%=      5-min Rain = 0
KTA1 130110Z 10005KT 29/12 A2989 RMK A01 T02920116  RH  034%=      5-min Rain = 0
KTA1 130111Z 10005KT 29/12 A2989 RMK A01 T02910117  RH  034%=      5-min Rain = 0
KTA1 130112Z 10005KT 29/12 A2989 RMK A01 T02900118  RH  034%=      5-min Rain = 0
KTA1 130113Z 10005KT 29/12 A2989 RMK A01 T02890118  RH  035%=      5-min Rain = 0
KTA1 130114Z 10005KT 29/12 A2989 RMK A01 T02890118  RH  035%=      5-min Rain = 0
KTA1 130115Z 10005KT 29/12 A2989 RMK A01 T02870118  RH  035%=      5-min Rain = 0
KTA1 130116Z 10005KT 29/12 A2989 RMK A01 T02870117  RH  035%=      5-min Rain = 0
KTA1 130117Z 10005KT 29/12 A2989 RMK A01 T02870115  RH  035%=      5-min Rain = 0
KTA1 130118Z 10005KT 29/12 A2989 RMK A01 T02870115  RH  034%=      5-min Rain = 0
KTA1 130119Z 10005KT 29/11 A2989 RMK A01 T02870114  RH  034%=      5-min Rain = 0
KTA1 130120Z 10005KT 29/11 A2989 RMK A01 T02870114  RH  034%=      5-min Rain = 0
KTA1 130121Z 11005KT 29/12 A2989 RMK A01 T02860116  RH  035%=      5-min Rain = 0
KTA1 130122Z 11004KT 29/12 A2989 RMK A01 T02850119  RH  036%=      5-min Rain = 0
KTA1 130123Z 11004KT 28/12 A2989 RMK A01 T02840119  RH  036%=      5-min Rain = 0
KTA1 130124Z 13003KT 28/12 A2989 RMK A01 T02820119  RH  036%=      5-min Rain = 0
KTA1 130125Z 14004KT 28/12 A2989 RMK A01 T02810118  RH  036%=      5-min Rain = 0
KTA1 130126Z 14004KT 28/12 A2989 RMK A01 T02790115  RH  036%=      5-min Rain = 0
KTA1 130127Z 14004KT 28/11 A2989 RMK A01 T02770114  RH  036%=      5-min Rain = 0
KTA1 130128Z 14005KT 28/11 A2989 RMK A01 T02760114  RH  036%=      5-min Rain = 0
KTA1 130129Z 13005KT 28/11 A2989 RMK A01 T02750114  RH  037%=      5-min Rain = 0
KTA1 130130Z 13005KT 27/11 A2989 RMK A01 T02740114  RH  037%=      5-min Rain = 0
KTA1 130131Z 13005KT 27/11 A2989 RMK A01 T02740114  RH  037%=      5-min Rain = 0
KTA1 130132Z 13005KT 27/11 A2989 RMK A01 T02740114  RH  037%=      5-min Rain = 0
KTA1 130133Z 13005KT 27/11 A2989 RMK A01 T02730114  RH  037%=      5-min Rain = 0
KTA1 130134Z 14005KT 27/11 A2989 RMK A01 T02730114  RH  037%=      5-min Rain = 0
KTA1 130135Z 14005KT 27/11 A2989 RMK A01 T02720114  RH  037%=      5-min Rain = 0
KTA1 130136Z 14005KT 27/12 A2989 RMK A01 T02720115  RH  038%=      5-min Rain = 0
KTA1 130137Z 14005KT 27/12 A2989 RMK A01 T02710115  RH  038%=      5-min Rain = 0
KTA1 130138Z 14005KT 27/12 A2989 RMK A01 T02710115  RH  038%=      5-min Rain = 0
KTA1 130139Z 14005KT 27/12 A2989 RMK A01 T02700115  RH  038%=      5-min Rain = 0
KTA1 130140Z 14005KT 27/12 A2989 RMK A01 T02700115  RH  038%=      5-min Rain = 0
KTA1 130141Z 14005KT 27/12 A2989 RMK A01 T02690116  RH  038%=      5-min Rain = 0
KTA1 130142Z 15005KT 27/12 A2989 RMK A01 T02690116  RH  038%=      5-min Rain = 0
KTA1 130143Z 15005KT 27/12 A2989 RMK A01 T02700116  RH  038%=      5-min Rain = 0
KTA1 130144Z 16005KT 27/12 A2989 RMK A01 T02690115  RH  038%=      5-min Rain = 0
KTA1 130145Z 16004KT 27/11 A2989 RMK A01 T02690114  RH  038%=      5-min Rain = 0
KTA1 130146Z 16003KT 27/11 A2989 RMK A01 T02700114  RH  038%=      5-min Rain = 0
KTA1 130147Z 16003KT 27/11 A2989 RMK A01 T02700113  RH  037%=      5-min Rain = 0
KTA1 130148Z 16004KT 27/11 A2989 RMK A01 T02700112  RH  037%=      5-min Rain = 0
KTA1 130149Z 16004KT 27/11 A2989 RMK A01 T02710112  RH  037%=      5-min Rain = 0
KTA1 130150Z 16004KT 27/11 A299 RMK A01 T02710112  RH  037%=      5-min Rain = 0
KTA1 130151Z 16004KT 27/11 A299 RMK A01 T02710111  RH  037%=      5-min Rain = 0
KTA1 130152Z 15004KT 27/11 A299 RMK A01 T02710111  RH  037%=      5-min Rain = 0
KTA1 130153Z 15004KT 27/11 A299 RMK A01 T02710110  RH  037%=      5-min Rain = 0
KTA1 130154Z 15004KT 27/11 A299 RMK A01 T02710110  RH  037%=      5-min Rain = 0
KTA1 130155Z 15004KT 27/11 A299 RMK A01 T02710111  RH  037%=      5-min Rain = 0
KTA1 130156Z 15004KT 27/11 A299 RMK A01 T02710111  RH  037%=      5-min Rain = 0
KTA1 130157Z 15005KT 27/11 A299 RMK A01 T02700111  RH  037%=      5-min Rain = 0
KTA1 130158Z 15005KT 27/11 A299 RMK A01 T02700110  RH  037%=      5-min Rain = 0
KTA1 130159Z 15005KT 27/11 A299 RMK A01 T02700110  RH  037%=      5-min Rain = 0
KTA1 130200Z 15005KT 27/11 A299 RMK A01 T02690111  RH  037%=      5-min Rain = 0
KTA1 130201Z 15005KT 27/11 A299 RMK A01 T02690110  RH  037%=      5-min Rain = 0
KTA1 130202Z 15005KT 27/11 A299 RMK A01 T02690110  RH  037%=      5-min Rain = 0
KTA1 130203Z 14006KT 27/11 A299 RMK A01 T02680110  RH  037%=      5-min Rain = 0
KTA1 130204Z 14006KT 27/11 A299 RMK A01 T02680109  RH  037%=      5-min Rain = 0
KTA1 130205Z 14006KT 27/11 A299 RMK A01 T02690109  RH  037%=      5-min Rain = 0
KTA1 130206Z 14005KT 27/11 A299 RMK A01 T02690110  RH  037%=      5-min Rain = 0
KTA1 130207Z 14005KT 27/11 A299 RMK A01 T02690110  RH  037%=      5-min Rain = 0
KTA1 130208Z 14005KT 27/11 A299 RMK A01 T02700110  RH  037%=      5-min Rain = 0
KTA1 130209Z 14006KT 27/11 A299 RMK A01 T02700110  RH  037%=      5-min Rain = 0
KTA1 130210Z 14005KT 27/11 A299 RMK A01 T02710110  RH  037%=      5-min Rain = 0
KTA1 130211Z 14005KT 27/11 A299 RMK A01 T02710109  RH  036%=      5-min Rain = 0
KTA1 130212Z 14005KT 27/11 A299 RMK A01 T02710110  RH  036%=      5-min Rain = 0
KTA1 130213Z 14005KT 27/11 A299 RMK A01 T02710109  RH  036%=      5-min Rain = 0
KTA1 130214Z 14005KT 27/11 A299 RMK A01 T02710109  RH  036%=      5-min Rain = 0
KTA1 130215Z 14005KT 27/11 A299 RMK A01 T02710109  RH  036%=      5-min Rain = 0
KTA1 130216Z 14005KT 27/11 A299 RMK A01 T02700109  RH  036%=      5-min Rain = 0
KTA1 130217Z 15005KT 27/11 A299 RMK A01 T02700109  RH  037%=      5-min Rain = 0
KTA1 130218Z 15005KT 27/11 A299 RMK A01 T02700109  RH  037%=      5-min Rain = 0
KTA1 130219Z 18005KT 27/11 A299 RMK A01 T02690109  RH  037%=      5-min Rain = 0
KTA1 130220Z 17005KT 27/11 A299 RMK A01 T02670106  RH  036%=      5-min Rain = 0
KTA1 130221Z 18004KT 27/11 A2991 RMK A01 T02670106  RH  036%=      5-min Rain = 0
KTA1 130222Z 18004KT 27/11 A2991 RMK A01 T02660106  RH  037%=      5-min Rain = 0
KTA1 130223Z 18005KT 27/11 A2991 RMK A01 T02650106  RH  037%=      5-min Rain = 0
KTA1 130224Z 18005KT 27/11 A2991 RMK A01 T02650106  RH  037%=      5-min Rain = 0
KTA1 130225Z 18005KT 26/11 A2991 RMK A01 T02640106  RH  037%=      5-min Rain = 0
KTA1 130226Z 18005KT 26/11 A2991 RMK A01 T02630106  RH  037%=      5-min Rain = 0
KTA1 130227Z 18005KT 26/11 A2991 RMK A01 T02630106  RH  037%=      5-min Rain = 0
KTA1 130228Z 18005KT 26/11 A2991 RMK A01 T02620106  RH  038%=      5-min Rain = 0
KTA1 130229Z 18005KT 26/11 A2991 RMK A01 T02610105  RH  038%=      5-min Rain = 0
KTA1 130230Z 18005KT 26/11 A2991 RMK A01 T02610105  RH  038%=      5-min Rain = 0
KTA1 130231Z 17005KT 26/11 A2991 RMK A01 T02610105  RH  038%=      5-min Rain = 0
KTA1 130232Z 17005KT 26/11 A2991 RMK A01 T02600105  RH  038%=      5-min Rain = 0
KTA1 130233Z 17005KT 26/10 A2991 RMK A01 T02600104  RH  038%=      5-min Rain = 0
KTA1 130234Z 17005KT 26/10 A2991 RMK A01 T02610104  RH  037%=      5-min Rain = 0
KTA1 130235Z 16005KT 26/10 A2991 RMK A01 T02620104  RH  037%=      5-min Rain = 0
KTA1 130236Z 16005KT 26/10 A2991 RMK A01 T02630103  RH  037%=      5-min Rain = 0
KTA1 130237Z 16005KT 26/10 A2991 RMK A01 T02630103  RH  037%=      5-min Rain = 0
KTA1 130238Z 16005KT 26/10 A2991 RMK A01 T02640103  RH  036%=      5-min Rain = 0
KTA1 130239Z 16006KT 26/10 A2991 RMK A01 T02640102  RH  036%=      5-min Rain = 0
KTA1 130240Z 16006KT 27/10 A2991 RMK A01 T02650102  RH  036%=      5-min Rain = 0
KTA1 130241Z 16006KT 27/10 A2991 RMK A01 T02650102  RH  036%=      5-min Rain = 0
KTA1 130242Z 17006KT 27/10 A2991 RMK A01 T02650102  RH  036%=      5-min Rain = 0
KTA1 130243Z 17006KT 27/10 A2991 RMK A01 T02650102  RH  036%=      5-min Rain = 0
KTA1 130244Z 17006KT 27/10 A2991 RMK A01 T02650103  RH  036%=      5-min Rain = 0
KTA1 130245Z 17005KT 26/10 A2991 RMK A01 T02640103  RH  036%=      5-min Rain = 0
KTA1 130246Z 17005KT 26/10 A2991 RMK A01 T02640103  RH  036%=      5-min Rain = 0
KTA1 130247Z 17005KT 26/10 A2991 RMK A01 T02630103  RH  036%=      5-min Rain = 0
KTA1 130248Z 18005KT 26/10 A2991 RMK A01 T02630103  RH  036%=      5-min Rain = 0
KTA1 130249Z 18005KT 26/10 A2991 RMK A01 T02630102  RH  036%=      5-min Rain = 0
KTA1 130250Z 18004KT 26/10 A2991 RMK A01 T02630102  RH  036%=      5-min Rain = 0
KTA1 130251Z 17004KT 26/10 A2991 RMK A01 T02630102  RH  036%=      5-min Rain = 0
KTA1 130252Z 17003KT 26/10 A2991 RMK A01 T02630102  RH  036%=      5-min Rain = 0
KTA1 130253Z 17004KT 26/10 A2991 RMK A01 T02620102  RH  037%=      5-min Rain = 0
KTA1 130254Z 17004KT 26/10 A2991 RMK A01 T02610103  RH  037%=      5-min Rain = 0
KTA1 130255Z 17004KT 26/10 A2991 RMK A01 T02600103  RH  037%=      5-min Rain = 0
KTA1 130256Z 17004KT 26/10 A2991 RMK A01 T02600103  RH  037%=      5-min Rain = 0
KTA1 130257Z 17004KT 26/10 A2991 RMK A01 T02590102  RH  037%=      5-min Rain = 0
KTA1 130258Z 17005KT 26/10 A2991 RMK A01 T02590102  RH  037%=      5-min Rain = 0
KTA1 130259Z 17004KT 26/10 A2991 RMK A01 T02590102  RH  037%=      5-min Rain = 0
KTA1 130300Z 17004KT 26/10 A2991 RMK A01 T02590102  RH  037%=      5-min Rain = 0
KTA1 130301Z 17004KT 26/10 A2991 RMK A01 T02580102  RH  037%=      5-min Rain = 0
KTA1 130302Z 18004KT 26/10 A2991 RMK A01 T02590102  RH  037%=      5-min Rain = 0
KTA1 130303Z 18004KT 26/10 A2991 RMK A01 T02590102  RH  037%=      5-min Rain = 0
KTA1 130304Z 18004KT 26/10 A2991 RMK A01 T02590102  RH  037%=      5-min Rain = 0
KTA1 130305Z 18004KT 26/10 A2991 RMK A01 T02600103  RH  037%=      5-min Rain = 0
KTA1 130306Z 18004KT 26/10 A2991 RMK A01 T02590104  RH  038%=      5-min Rain = 0
KTA1 130307Z 18004KT 26/10 A2991 RMK A01 T02590103  RH  038%=      5-min Rain = 0
KTA1 130308Z 17005KT 26/10 A2991 RMK A01 T02580103  RH  038%=      5-min Rain = 0
KTA1 130309Z 17004KT 26/10 A2991 RMK A01 T02580103  RH  038%=      5-min Rain = 0
KTA1 130310Z 17004KT 26/10 A2991 RMK A01 T02580103  RH  038%=      5-min Rain = 0
KTA1 130311Z 17004KT 26/10 A2991 RMK A01 T02570103  RH  038%=      5-min Rain = 0
KTA1 130312Z 18004KT 26/10 A2991 RMK A01 T02570103  RH  038%=      5-min Rain = 0
KTA1 130313Z 18004KT 26/10 A2991 RMK A01 T02570103  RH  038%=      5-min Rain = 0
KTA1 130314Z 18004KT 26/10 A2991 RMK A01 T02570102  RH  038%=      5-min Rain = 0
KTA1 130315Z 18004KT 26/10 A2991 RMK A01 T02560103  RH  038%=      5-min Rain = 0
KTA1 130316Z 18004KT 26/10 A2991 RMK A01 T02560103  RH  038%=      5-min Rain = 0
KTA1 130317Z 18004KT 26/10 A2991 RMK A01 T02560103  RH  038%=      5-min Rain = 0
KTA1 130318Z 18004KT 26/10 A2992 RMK A01 T02550103  RH  038%=      5-min Rain = 0
KTA1 130319Z 18004KT 26/10 A2992 RMK A01 T02550102  RH  038%=      5-min Rain = 0
KTA1 130320Z 18003KT 25/10 A2992 RMK A01 T02540103  RH  038%=      5-min Rain = 0
KTA1 130321Z 18003KT 25/10 A2992 RMK A01 T02540103  RH  039%=      5-min Rain = 0
KTA1 130322Z 18003KT 25/10 A2992 RMK A01 T02530103  RH  039%=      5-min Rain = 0
KTA1 130323Z 17003KT 25/10 A2992 RMK A01 T02530103  RH  039%=      5-min Rain = 0
KTA1 130324Z 17003KT 25/10 A2991 RMK A01 T02520103  RH  039%=      5-min Rain = 0
KTA1 130325Z 18003KT 25/10 A2991 RMK A01 T02520103  RH  039%=      5-min Rain = 0
KTA1 130326Z 18004KT 25/10 A2991 RMK A01 T02520103  RH  039%=      5-min Rain = 0
KTA1 130327Z 18004KT 25/10 A2991 RMK A01 T02530103  RH  039%=      5-min Rain = 0
KTA1 130328Z 18003KT 25/10 A2991 RMK A01 T02530103  RH  039%=      5-min Rain = 0
KTA1 130329Z 18003KT 25/10 A2991 RMK A01 T02530103  RH  039%=      5-min Rain = 0
KTA1 130330Z 18003KT 25/10 A2991 RMK A01 T02530103  RH  039%=      5-min Rain = 0
KTA1 130331Z 18003KT 25/10 A2991 RMK A01 T02530103  RH  039%=      5-min Rain = 0
KTA1 130332Z 18003KT 25/10 A2992 RMK A01 T02520103  RH  039%=      5-min Rain = 0
KTA1 130333Z 17003KT 25/10 A2992 RMK A01 T02520103  RH  039%=      5-min Rain = 0
KTA1 130334Z 17003KT 25/10 A2992 RMK A01 T02520103  RH  039%=      5-min Rain = 0
KTA1 130335Z 18003KT 25/10 A2992 RMK A01 T02510103  RH  039%=      5-min Rain = 0
KTA1 130336Z 18003KT 25/10 A2992 RMK A01 T02510103  RH  039%=      5-min Rain = 0
KTA1 130337Z 18004KT 25/10 A2992 RMK A01 T02510104  RH  039%=      5-min Rain = 0
KTA1 130338Z 18004KT 25/10 A2992 RMK A01 T02520104  RH  039%=      5-min Rain = 0
KTA1 130339Z 18004KT 25/10 A2992 RMK A01 T02510103  RH  039%=      5-min Rain = 0
KTA1 130340Z 19005KT 25/10 A2992 RMK A01 T02520104  RH  039%=      5-min Rain = 0
KTA1 130341Z 18005KT 25/10 A2992 RMK A01 T02520103  RH  039%=      5-min Rain = 0
KTA1 130342Z 18005KT 25/10 A2992 RMK A01 T02520103  RH  039%=      5-min Rain = 0
KTA1 130343Z 19005KT 25/10 A2992 RMK A01 T02520103  RH  039%=      5-min Rain = 0
KTA1 130344Z 19005KT 25/10 A2992 RMK A01 T02520103  RH  039%=      5-min Rain = 0
KTA1 130345Z 19005KT 25/10 A2992 RMK A01 T02510103  RH  039%=      5-min Rain = 0
KTA1 130346Z 19005KT 25/10 A2992 RMK A01 T02520103  RH  039%=      5-min Rain = 0
KTA1 130347Z 19005KT 25/10 A2992 RMK A01 T02520102  RH  039%=      5-min Rain = 0
KTA1 130348Z 19005KT 25/10 A2992 RMK A01 T02510102  RH  039%=      5-min Rain = 0
KTA1 130349Z 19005KT 25/10 A2992 RMK A01 T02520102  RH  039%=      5-min Rain = 0
KTA1 130350Z 19005KT 25/10 A2992 RMK A01 T02520102  RH  039%=      5-min Rain = 0
KTA1 130351Z 19005KT 25/10 A2992 RMK A01 T02520102  RH  039%=      5-min Rain = 0
KTA1 130352Z 19005KT 25/10 A2992 RMK A01 T02520102  RH  039%=      5-min Rain = 0
KTA1 130353Z 19005KT 25/10 A2991 RMK A01 T02520102  RH  039%=      5-min Rain = 0
KTA1 130354Z 18005KT 25/10 A2991 RMK A01 T02520102  RH  039%=      5-min Rain = 0
KTA1 130355Z 18005KT 25/10 A2991 RMK A01 T02520102  RH  039%=      5-min Rain = 0
KTA1 130356Z 18005KT 25/10 A2991 RMK A01 T02520102  RH  039%=      5-min Rain = 0
KTA1 130357Z 18004KT 25/10 A2991 RMK A01 T02520102  RH  039%=      5-min Rain = 0
KTA1 130358Z 18004KT 25/10 A2991 RMK A01 T02520102  RH  039%=      5-min Rain = 0
KTA1 130359Z 18004KT 25/10 A2991 RMK A01 T02520102  RH  039%=      5-min Rain = 0
KTA1 130400Z 18004KT 25/10 A2991 RMK A01 T02520102  RH  039%=      5-min Rain = 0
KTA1 130401Z 18004KT 25/10 A2991 RMK A01 T02520102  RH  039%=      5-min Rain = 0
KTA1 130402Z 18004KT 25/10 A2991 RMK A01 T02530102  RH  039%=      5-min Rain = 0
KTA1 130403Z 18004KT 25/10 A2991 RMK A01 T02530102  RH  039%=      5-min Rain = 0
KTA1 130404Z 18005KT 25/10 A2991 RMK A01 T02530102  RH  039%=      5-min Rain = 0
KTA1 130405Z 19005KT 25/10 A2991 RMK A01 T02540102  RH  039%=      5-min Rain = 0
KTA1 130406Z 19005KT 25/10 A2991 RMK A01 T02540103  RH  038%=      5-min Rain = 0
KTA1 130407Z 19005KT 25/10 A2991 RMK A01 T02540102  RH  038%=      5-min Rain = 0
KTA1 130408Z 18005KT 25/10 A2991 RMK A01 T02540102  RH  038%=      5-min Rain = 0
KTA1 130409Z 18004KT 25/10 A2991 RMK A01 T02540102  RH  038%=      5-min Rain = 0
KTA1 130410Z 18004KT 25/10 A2991 RMK A01 T02540102  RH  038%=      5-min Rain = 0
KTA1 130411Z 18004KT 25/10 A2992 RMK A01 T02530102  RH  039%=      5-min Rain = 0
KTA1 130412Z 19004KT 25/10 A2992 RMK A01 T02530103  RH  039%=      5-min Rain = 0
KTA1 130413Z 19005KT 25/10 A2992 RMK A01 T02530103  RH  039%=      5-min Rain = 0
KTA1 130414Z 19005KT 25/10 A2992 RMK A01 T02530103  RH  039%=      5-min Rain = 0
KTA1 130415Z 19005KT 25/10 A2992 RMK A01 T02520103  RH  039%=      5-min Rain = 0
KTA1 130416Z 19005KT 25/10 A2992 RMK A01 T02520103  RH  039%=      5-min Rain = 0
KTA1 130417Z 19004KT 25/10 A2992 RMK A01 T02510103  RH  039%=      5-min Rain = 0
KTA1 130418Z 19004KT 25/10 A2992 RMK A01 T02510104  RH  039%=      5-min Rain = 0
KTA1 130419Z 17003KT 25/10 A2992 RMK A01 T02510103  RH  039%=      5-min Rain = 0
KTA1 130420Z 07005KT 25/10 A2992 RMK A01 T02510103  RH  039%=      5-min Rain = 0
KTA1 130421Z 07007KT 25/11 A2992 RMK A01 T02480105  RH  041%=      5-min Rain = 0
KTA1 130422Z 08006KT 24/11 A2992 RMK A01 T02440106  RH  042%=      5-min Rain = 0
KTA1 130423Z 08006KT 24/11 A2992 RMK A01 T02420106  RH  042%=      5-min Rain = 0
KTA1 130424Z 10006KT 24/11 A2992 RMK A01 T02420105  RH  042%=      5-min Rain = 0
KTA1 130425Z 11008KT 24/11 A2992 RMK A01 T02440107  RH  042%=      5-min Rain = 0
KTA1 130426Z 12007KT 25/11 A2992 RMK A01 T02470108  RH  042%=      5-min Rain = 0
KTA1 130427Z 10008KT 25/11 A2992 RMK A01 T02490106  RH  040%=      5-min Rain = 0
KTA1 130428Z 09007KT 25/10 A2992 RMK A01 T02520104  RH  039%=      5-min Rain = 0
KTA1 130429Z 09006KT 26/10 A2992 RMK A01 T02550104  RH  039%=      5-min Rain = 0
KTA1 130430Z 10007KT 26/11 A2992 RMK A01 T02570105  RH  038%=      5-min Rain = 0
KTA1 130431Z 10006KT 26/11 A2992 RMK A01 T02570106  RH  039%=      5-min Rain = 0
KTA1 130432Z 10007KT 26/11 A2992 RMK A01 T02560108  RH  039%=      5-min Rain = 0
KTA1 130433Z 10006KT 26/11 A2992 RMK A01 T02550109  RH  040%=      5-min Rain = 0
KTA1 130434Z 10006KT 25/11 A2992 RMK A01 T02540109  RH  040%=      5-min Rain = 0
KTA1 130435Z 10006KT 25/11 A2992 RMK A01 T02520110  RH  041%=      5-min Rain = 0
KTA1 130436Z 10006KT 25/11 A2992 RMK A01 T02510110  RH  041%=      5-min Rain = 0
KTA1 130437Z 10006KT 25/11 A2992 RMK A01 T02500109  RH  041%=      5-min Rain = 0
KTA1 130438Z 10005KT 25/11 A2992 RMK A01 T02490109  RH  041%=      5-min Rain = 0
KTA1 130439Z 10006KT 25/11 A2992 RMK A01 T02480109  RH  042%=      5-min Rain = 0
KTA1 130440Z 11006KT 25/11 A2992 RMK A01 T02470108  RH  042%=      5-min Rain = 0
KTA1 130441Z 11006KT 25/11 A2992 RMK A01 T02460108  RH  042%=      5-min Rain = 0
KTA1 130442Z 11006KT 25/11 A2992 RMK A01 T02460108  RH  042%=      5-min Rain = 0
KTA1 130443Z 12006KT 25/11 A2992 RMK A01 T02450108  RH  042%=      5-min Rain = 0
KTA1 130444Z 12006KT 24/11 A2992 RMK A01 T02440107  RH  042%=      5-min Rain = 0
KTA1 130445Z 12006KT 24/11 A2992 RMK A01 T02440105  RH  041%=      5-min Rain = 0
KTA1 130446Z 12006KT 24/10 A2992 RMK A01 T02440104  RH  041%=      5-min Rain = 0
KTA1 130447Z 12006KT 25/10 A2992 RMK A01 T02450103  RH  041%=      5-min Rain = 0
KTA1 130448Z 12006KT 25/10 A2992 RMK A01 T02450103  RH  041%=      5-min Rain = 0
KTA1 130449Z 12006KT 25/10 A2992 RMK A01 T02450103  RH  041%=      5-min Rain = 0
KTA1 130450Z 13006KT 24/10 A2992 RMK A01 T02440103  RH  041%=      5-min Rain = 0
KTA1 130451Z 13006KT 24/10 A2992 RMK A01 T02440103  RH  041%=      5-min Rain = 0
KTA1 130452Z 13006KT 24/10 A2992 RMK A01 T02440103  RH  041%=      5-min Rain = 0
KTA1 130453Z 13006KT 24/10 A2992 RMK A01 T02430103  RH  041%=      5-min Rain = 0
KTA1 130454Z 13006KT 24/10 A2992 RMK A01 T02420103  RH  041%=      5-min Rain = 0
KTA1 130455Z 13007KT 24/10 A2992 RMK A01 T02420103  RH  041%=      5-min Rain = 0
KTA1 130456Z 13006KT 24/10 A2992 RMK A01 T02410103  RH  042%=      5-min Rain = 0
KTA1 130457Z 13007KT 24/10 A2992 RMK A01 T02410103  RH  042%=      5-min Rain = 0
KTA1 130458Z 13007KT 24/10 A2992 RMK A01 T02410104  RH  042%=      5-min Rain = 0
KTA1 130459Z 13007KT 24/10 A2992 RMK A01 T02410104  RH  042%=      5-min Rain = 0

Page generated in 0.177 seconds.